Time,TemperatureF,DewpointF,PressureIn,WindDirection,WindDirectionDegrees,WindSpeedMPH,WindSpeedGustMPH,Humidity,HourlyPrecipIn,Conditions,Clouds,dailyrainin,SoftwareType,DateUTC
2013-03-03 00:00:00,25.8,22.5,29.71,SE,134,4.0,4.0,87,0.00,,,0.00,Wunderground v.1.15,2013-03-03 05:00:00,
2013-03-03 00:01:00,25.8,22.5,29.71,SSE,157,1.0,4.0,87,0.00,,,0.00,Wunderground v.1.15,2013-03-03 05:01:00,
2013-03-03 00:07:00,25.8,22.7,29.71,ENE,75,2.0,4.0,88,0.00,,,0.00,Wunderground v.1.15,2013-03-03 05:07:00,
2013-03-03 00:13:00,25.7,22.6,29.71,SW,236,0.0,2.0,88,0.00,,,0.00,Wunderground v.1.15,2013-03-03 05:13:00,
2013-03-03 00:15:00,25.7,22.6,29.71,East,86,0.0,2.0,88,0.00,,,0.00,Wunderground v.1.15,2013-03-03 05:15:00,
2013-03-03 00:16:00,25.7,22.6,29.71,ESE,105,1.0,2.0,88,0.00,,,0.00,Wunderground v.1.15,2013-03-03 05:16:00,
2013-03-03 00:18:00,25.7,22.6,29.71,ENE,77,2.0,2.0,88,0.00,,,0.00,Wunderground v.1.15,2013-03-03 05:18:00,
2013-03-03 00:22:00,25.7,22.6,29.71,East,87,0.0,1.0,88,0.00,,,0.00,Wunderground v.1.15,2013-03-03 05:22:00,
2013-03-03 00:24:00,25.7,22.6,29.71,SSE,151,0.0,1.0,88,0.00,,,0.00,Wunderground v.1.15,2013-03-03 05:24:00,
2013-03-03 00:25:00,25.6,22.5,29.71,SE,127,0.0,1.0,88,0.00,,,0.00,Wunderground v.1.15,2013-03-03 05:25:00,
2013-03-03 00:28:00,25.6,22.5,29.71,ESE,113,0.0,1.0,88,0.00,,,0.00,Wunderground v.1.15,2013-03-03 05:28:00,
2013-03-03 00:30:00,25.7,22.6,29.71,East,92,1.0,1.0,88,0.00,,,0.00,Wunderground v.1.15,2013-03-03 05:30:00,
2013-03-03 00:31:00,25.6,22.5,29.71,ESE,105,0.0,1.0,88,0.00,,,0.00,Wunderground v.1.15,2013-03-03 05:31:00,
2013-03-03 00:34:00,25.6,22.5,29.71,East,96,0.0,1.0,88,0.00,,,0.00,Wunderground v.1.15,2013-03-03 05:34:00,
2013-03-03 00:35:00,25.6,22.5,29.71,East,82,0.0,1.0,88,0.00,,,0.00,Wunderground v.1.15,2013-03-03 05:35:00,
2013-03-03 00:37:00,25.6,22.5,29.71,SE,133,1.0,1.0,88,0.00,,,0.00,Wunderground v.1.15,2013-03-03 05:37:00,
2013-03-03 00:40:00,25.6,22.8,29.71,ENE,72,0.0,1.0,89,0.00,,,0.00,Wunderground v.1.15,2013-03-03 05:40:00,
2013-03-03 00:43:00,25.6,22.5,29.71,ENE,72,0.0,1.0,88,0.00,,,0.00,Wunderground v.1.15,2013-03-03 05:43:00,
2013-03-03 00:45:00,25.6,22.8,29.71,East,82,0.0,1.0,89,0.00,,,0.00,Wunderground v.1.15,2013-03-03 05:45:00,
2013-03-03 00:46:00,25.6,22.8,29.71,East,96,2.0,2.0,89,0.00,,,0.00,Wunderground v.1.15,2013-03-03 05:46:00,
2013-03-03 00:47:00,25.6,22.8,29.71,East,89,2.0,2.0,89,0.00,,,0.00,Wunderground v.1.15,2013-03-03 05:47:00,
2013-03-03 00:49:00,25.5,22.7,29.71,East,88,1.0,2.0,89,0.00,,,0.00,Wunderground v.1.15,2013-03-03 05:49:00,
2013-03-03 00:51:00,25.5,22.7,29.71,East,96,1.0,1.0,89,0.00,,,0.00,Wunderground v.1.15,2013-03-03 05:51:00,
2013-03-03 00:53:00,25.5,22.7,29.71,East,101,1.0,1.0,89,0.00,,,0.00,Wunderground v.1.15,2013-03-03 05:53:00,
2013-03-03 00:56:00,25.5,22.7,29.71,East,94,1.0,1.0,89,0.00,,,0.00,Wunderground v.1.15,2013-03-03 05:56:00,
2013-03-03 00:57:00,25.5,22.7,29.71,East,90,1.0,1.0,89,0.00,,,0.00,Wunderground v.1.15,2013-03-03 05:57:00,
2013-03-03 00:59:00,25.4,22.6,29.71,East,96,1.0,3.0,89,0.00,,,0.00,Wunderground v.1.15,2013-03-03 05:59:00,
2013-03-03 01:03:00,25.4,22.6,29.71,East,90,0.0,1.0,89,0.00,,,0.00,Wunderground v.1.15,2013-03-03 06:03:00,
2013-03-03 01:04:00,25.4,22.6,29.71,East,94,1.0,1.0,89,0.00,,,0.00,Wunderground v.1.15,2013-03-03 06:04:00,
2013-03-03 01:05:00,25.4,22.6,29.71,ESE,119,0.0,1.0,89,0.00,,,0.00,Wunderground v.1.15,2013-03-03 06:05:00,
2013-03-03 01:10:00,25.3,22.5,29.70,East,79,0.0,1.0,89,0.00,,,0.00,Wunderground v.1.15,2013-03-03 06:10:00,
2013-03-03 01:11:00,25.3,22.5,29.70,East,79,0.0,0.0,89,0.00,,,0.00,Wunderground v.1.15,2013-03-03 06:11:00,
2013-03-03 01:12:00,25.3,22.5,29.70,East,79,0.0,0.0,89,0.00,,,0.00,Wunderground v.1.15,2013-03-03 06:12:00,
2013-03-03 01:18:00,25.3,22.5,29.70,East,100,3.0,3.0,89,0.00,,,0.00,Wunderground v.1.15,2013-03-03 06:18:00,
2013-03-03 01:20:00,25.2,22.4,29.70,SSE,167,0.0,3.0,89,0.00,,,0.00,Wunderground v.1.15,2013-03-03 06:20:00,
2013-03-03 01:24:00,25.2,22.7,29.71,East,96,0.0,2.0,90,0.00,,,0.00,Wunderground v.1.15,2013-03-03 06:24:00,
2013-03-03 01:28:00,25.2,22.4,29.70,East,83,0.0,3.0,89,0.00,,,0.00,Wunderground v.1.15,2013-03-03 06:28:00,
2013-03-03 01:30:00,25.2,22.4,29.70,East,86,2.0,3.0,89,0.00,,,0.00,Wunderground v.1.15,2013-03-03 06:30:00,
2013-03-03 01:31:00,25.1,22.3,29.70,ESE,111,1.0,1.0,89,0.00,,,0.00,Wunderground v.1.15,2013-03-03 06:31:00,
2013-03-03 01:32:00,25.1,22.3,29.70,East,89,1.0,1.0,89,0.00,,,0.00,Wunderground v.1.15,2013-03-03 06:32:00,
2013-03-03 01:37:00,25.0,22.2,29.70,East,89,2.0,2.0,89,0.00,,,0.00,Wunderground v.1.15,2013-03-03 06:37:00,
2013-03-03 01:38:00,25.0,22.2,29.70,East,92,1.0,2.0,89,0.00,,,0.00,Wunderground v.1.15,2013-03-03 06:38:00,
2013-03-03 01:43:00,25.0,22.2,29.70,ENE,70,0.0,1.0,89,0.00,,,0.00,Wunderground v.1.15,2013-03-03 06:43:00,
2013-03-03 01:44:00,25.0,22.2,29.70,ENE,71,0.0,1.0,89,0.00,,,0.00,Wunderground v.1.15,2013-03-03 06:44:00,
2013-03-03 01:50:00,24.9,22.1,29.70,NE,44,1.0,2.0,89,0.00,,,0.00,Wunderground v.1.15,2013-03-03 06:50:00,
2013-03-03 01:51:00,24.9,22.1,29.70,ENE,77,1.0,1.0,89,0.00,,,0.00,Wunderground v.1.15,2013-03-03 06:51:00,
2013-03-03 01:53:00,24.9,22.4,29.70,East,98,0.0,1.0,90,0.00,,,0.00,Wunderground v.1.15,2013-03-03 06:53:00,
2013-03-03 01:58:00,24.9,22.4,29.70,East,82,1.0,2.0,90,0.00,,,0.00,Wunderground v.1.15,2013-03-03 06:58:00,
2013-03-03 01:59:00,24.8,22.3,29.70,East,82,0.0,2.0,90,0.00,,,0.00,Wunderground v.1.15,2013-03-03 06:59:00,
2013-03-03 02:02:00,24.9,22.4,29.70,ESE,123,0.0,2.0,90,0.00,,,0.00,Wunderground v.1.15,2013-03-03 07:02:00,
2013-03-03 02:03:00,24.8,22.3,29.69,ESE,122,0.0,2.0,90,0.00,,,0.00,Wunderground v.1.15,2013-03-03 07:03:00,
2013-03-03 02:04:00,24.8,22.3,29.69,ESE,121,1.0,2.0,90,0.00,,,0.00,Wunderground v.1.15,2013-03-03 07:04:00,
2013-03-03 02:07:00,24.8,22.3,29.70,ESE,108,0.0,2.0,90,0.00,,,0.00,Wunderground v.1.15,2013-03-03 07:07:00,
2013-03-03 02:08:00,24.8,22.3,29.69,East,89,0.0,2.0,90,0.00,,,0.00,Wunderground v.1.15,2013-03-03 07:08:00,
2013-03-03 02:09:00,24.8,22.3,29.70,ESE,121,3.0,3.0,90,0.00,,,0.00,Wunderground v.1.15,2013-03-03 07:09:00,
2013-03-03 02:12:00,24.8,22.3,29.69,ESE,104,1.0,2.0,90,0.00,,,0.00,Wunderground v.1.15,2013-03-03 07:12:00,
2013-03-03 02:13:00,24.8,22.3,29.69,NNW,339,1.0,2.0,90,0.00,,,0.00,Wunderground v.1.15,2013-03-03 07:13:00,
2013-03-03 02:14:00,24.7,21.9,29.69,North,6,0.0,2.0,89,0.00,,,0.00,Wunderground v.1.15,2013-03-03 07:14:00,
2013-03-03 02:17:00,24.7,21.9,29.69,ESE,103,0.0,2.0,89,0.00,,,0.00,Wunderground v.1.15,2013-03-03 07:17:00,
2013-03-03 02:19:00,24.7,22.2,29.69,SE,141,0.0,2.0,90,0.00,,,0.00,Wunderground v.1.15,2013-03-03 07:19:00,
2013-03-03 02:22:00,24.6,22.1,29.69,East,87,0.0,2.0,90,0.00,,,0.00,Wunderground v.1.15,2013-03-03 07:22:00,
2013-03-03 02:23:00,24.6,22.1,29.69,East,90,1.0,2.0,90,0.00,,,0.00,Wunderground v.1.15,2013-03-03 07:23:00,
2013-03-03 02:24:00,24.6,22.1,29.69,South,170,0.0,2.0,90,0.00,,,0.00,Wunderground v.1.15,2013-03-03 07:24:00,
2013-03-03 02:27:00,24.6,22.1,29.69,East,90,2.0,3.0,90,0.00,,,0.00,Wunderground v.1.15,2013-03-03 07:27:00,
2013-03-03 02:28:00,24.6,22.1,29.69,East,90,0.0,3.0,90,0.00,,,0.00,Wunderground v.1.15,2013-03-03 07:28:00,
2013-03-03 02:29:00,24.5,21.7,29.69,East,90,1.0,3.0,89,0.00,,,0.00,Wunderground v.1.15,2013-03-03 07:29:00,
2013-03-03 02:30:00,24.5,21.7,29.69,East,90,1.0,3.0,89,0.00,,,0.00,Wunderground v.1.15,2013-03-03 07:30:00,
2013-03-03 02:33:00,24.5,22.0,29.69,SE,131,0.0,2.0,90,0.00,,,0.00,Wunderground v.1.15,2013-03-03 07:33:00,
2013-03-03 02:35:00,24.5,22.0,29.69,SE,138,0.0,2.0,90,0.00,,,0.00,Wunderground v.1.15,2013-03-03 07:35:00,
2013-03-03 02:38:00,24.4,21.9,29.69,SSE,158,1.0,2.0,90,0.00,,,0.00,Wunderground v.1.15,2013-03-03 07:38:00,
2013-03-03 02:40:00,24.4,21.9,29.69,ESE,121,0.0,2.0,90,0.00,,,0.00,Wunderground v.1.15,2013-03-03 07:40:00,
2013-03-03 02:43:00,24.4,21.9,29.69,SE,134,3.0,4.0,90,0.00,,,0.00,Wunderground v.1.15,2013-03-03 07:43:00,
2013-03-03 02:45:00,24.4,21.6,29.69,East,99,0.0,4.0,89,0.00,,,0.00,Wunderground v.1.15,2013-03-03 07:45:00,
2013-03-03 02:48:00,24.3,21.8,29.69,East,100,1.0,4.0,90,0.00,,,0.00,Wunderground v.1.15,2013-03-03 07:48:00,
2013-03-03 02:50:00,24.3,21.8,29.69,East,87,0.0,4.0,90,0.00,,,0.00,Wunderground v.1.15,2013-03-03 07:50:00,
2013-03-03 02:53:00,24.3,21.8,29.69,SSE,150,0.0,1.0,90,0.00,,,0.00,Wunderground v.1.15,2013-03-03 07:53:00,
2013-03-03 02:55:00,24.2,21.7,29.69,SSE,150,0.0,1.0,90,0.00,,,0.00,Wunderground v.1.15,2013-03-03 07:55:00,
2013-03-03 02:56:00,24.2,21.7,29.69,SSE,150,0.0,1.0,90,0.00,,,0.00,Wunderground v.1.15,2013-03-03 07:56:00,
2013-03-03 02:58:00,24.2,21.7,29.68,SSE,151,0.0,1.0,90,0.00,,,0.00,Wunderground v.1.15,2013-03-03 07:58:00,
2013-03-03 03:01:00,24.2,21.7,29.68,ESE,113,1.0,1.0,90,0.00,,,0.00,Wunderground v.1.15,2013-03-03 08:01:00,
2013-03-03 03:02:00,24.2,21.7,29.68,ESE,113,0.0,1.0,90,0.00,,,0.00,Wunderground v.1.15,2013-03-03 08:02:00,
2013-03-03 03:03:00,24.2,21.4,29.68,ESE,113,0.0,1.0,89,0.00,,,0.00,Wunderground v.1.15,2013-03-03 08:03:00,
2013-03-03 03:04:00,24.1,21.3,29.68,ESE,113,0.0,1.0,89,0.00,,,0.00,Wunderground v.1.15,2013-03-03 08:04:00,
2013-03-03 03:07:00,24.1,21.6,29.68,East,94,1.0,2.0,90,0.00,,,0.00,Wunderground v.1.15,2013-03-03 08:07:00,
2013-03-03 03:08:00,24.1,21.6,29.68,ESE,108,0.0,2.0,90,0.00,,,0.00,Wunderground v.1.15,2013-03-03 08:08:00,
2013-03-03 03:09:00,24.1,21.6,29.68,ESE,114,0.0,2.0,90,0.00,,,0.00,Wunderground v.1.15,2013-03-03 08:09:00,
2013-03-03 03:12:00,24.0,21.5,29.68,East,101,0.0,2.0,90,0.00,,,0.00,Wunderground v.1.15,2013-03-03 08:12:00,
2013-03-03 03:14:00,24.0,21.5,29.68,East,99,0.0,2.0,90,0.00,,,0.00,Wunderground v.1.15,2013-03-03 08:14:00,
2013-03-03 03:17:00,24.0,21.5,29.68,SSE,166,0.0,2.0,90,0.00,,,0.00,Wunderground v.1.15,2013-03-03 08:17:00,
2013-03-03 03:19:00,23.9,21.4,29.68,SSE,166,0.0,2.0,90,0.00,,,0.00,Wunderground v.1.15,2013-03-03 08:19:00,
2013-03-03 03:22:00,23.9,21.4,29.68,SSE,166,0.0,0.0,90,0.00,,,0.00,Wunderground v.1.15,2013-03-03 08:22:00,
2013-03-03 03:24:00,23.9,21.4,29.68,SSE,166,0.0,0.0,90,0.00,,,0.00,Wunderground v.1.15,2013-03-03 08:24:00,
2013-03-03 03:27:00,23.8,21.3,29.69,East,99,0.0,2.0,90,0.00,,,0.00,Wunderground v.1.15,2013-03-03 08:27:00,
2013-03-03 03:29:00,23.8,21.3,29.68,East,98,0.0,2.0,90,0.00,,,0.00,Wunderground v.1.15,2013-03-03 08:29:00,
2013-03-03 03:32:00,23.8,21.3,29.68,South,191,3.0,4.0,90,0.00,,,0.00,Wunderground v.1.15,2013-03-03 08:32:00,
2013-03-03 03:34:00,23.7,20.9,29.68,South,184,0.0,4.0,89,0.00,,,0.00,Wunderground v.1.15,2013-03-03 08:34:00,
2013-03-03 03:35:00,23.7,20.9,29.68,South,184,0.0,4.0,89,0.00,,,0.00,Wunderground v.1.15,2013-03-03 08:35:00,
2013-03-03 03:37:00,23.6,21.1,29.68,South,184,0.0,4.0,90,0.00,,,0.00,Wunderground v.1.15,2013-03-03 08:37:00,
2013-03-03 03:38:00,23.6,21.1,29.68,South,185,0.0,4.0,90,0.00,,,0.00,Wunderground v.1.15,2013-03-03 08:38:00,
2013-03-03 03:39:00,23.6,21.1,29.69,East,95,1.0,4.0,90,0.00,,,0.00,Wunderground v.1.15,2013-03-03 08:39:00,
2013-03-03 03:40:00,23.6,21.1,29.69,East,94,1.0,3.0,90,0.00,,,0.00,Wunderground v.1.15,2013-03-03 08:40:00,
2013-03-03 03:42:00,23.6,21.1,29.69,ESE,105,1.0,4.0,90,0.00,,,0.00,Wunderground v.1.15,2013-03-03 08:42:00,
2013-03-03 03:43:00,23.6,21.1,29.69,East,96,2.0,4.0,90,0.00,,,0.00,Wunderground v.1.15,2013-03-03 08:43:00,
2013-03-03 03:44:00,23.5,21.0,29.69,East,90,1.0,4.0,90,0.00,,,0.00,Wunderground v.1.15,2013-03-03 08:44:00,
2013-03-03 03:45:00,23.5,21.0,29.69,East,91,1.0,4.0,90,0.00,,,0.00,Wunderground v.1.15,2013-03-03 08:45:00,
2013-03-03 03:48:00,23.5,21.0,29.69,SSW,194,0.0,4.0,90,0.00,,,0.00,Wunderground v.1.15,2013-03-03 08:48:00,
2013-03-03 03:49:00,23.5,21.0,29.69,ESE,114,1.0,4.0,90,0.00,,,0.00,Wunderground v.1.15,2013-03-03 08:49:00,
2013-03-03 03:50:00,23.5,21.0,29.69,East,98,1.0,1.0,90,0.00,,,0.00,Wunderground v.1.15,2013-03-03 08:50:00,
2013-03-03 03:53:00,23.5,21.0,29.69,East,98,0.0,1.0,90,0.00,,,0.00,Wunderground v.1.15,2013-03-03 08:53:00,
2013-03-03 03:54:00,23.5,21.0,29.68,East,98,1.0,1.0,90,0.00,,,0.00,Wunderground v.1.15,2013-03-03 08:54:00,
2013-03-03 03:55:00,23.4,20.9,29.69,SE,134,0.0,1.0,90,0.00,,,0.00,Wunderground v.1.15,2013-03-03 08:55:00,
2013-03-03 03:58:00,23.5,21.0,29.68,SE,136,0.0,1.0,90,0.00,,,0.00,Wunderground v.1.15,2013-03-03 08:58:00,
2013-03-03 03:59:00,23.4,20.9,29.68,SE,136,0.0,1.0,90,0.00,,,0.00,Wunderground v.1.15,2013-03-03 08:59:00,
2013-03-03 04:01:00,23.4,20.9,29.68,SE,136,0.0,0.0,90,0.00,,,0.00,Wunderground v.1.15,2013-03-03 09:01:00,
2013-03-03 04:03:00,23.4,20.9,29.68,SE,136,0.0,0.0,90,0.00,,,0.00,Wunderground v.1.15,2013-03-03 09:03:00,
2013-03-03 04:04:00,23.4,20.9,29.68,ESE,104,1.0,1.0,90,0.00,,,0.00,Wunderground v.1.15,2013-03-03 09:04:00,
2013-03-03 04:06:00,23.4,20.9,29.68,ESE,102,0.0,1.0,90,0.00,,,0.00,Wunderground v.1.15,2013-03-03 09:06:00,
2013-03-03 04:08:00,23.4,20.9,29.68,East,99,2.0,2.0,90,0.00,,,0.00,Wunderground v.1.15,2013-03-03 09:08:00,
2013-03-03 04:09:00,23.4,20.9,29.68,East,99,0.0,2.0,90,0.00,,,0.00,Wunderground v.1.15,2013-03-03 09:09:00,
2013-03-03 04:12:00,23.5,21.0,29.68,East,96,1.0,1.0,90,0.00,,,0.00,Wunderground v.1.15,2013-03-03 09:12:00,
2013-03-03 04:13:00,23.4,20.9,29.68,SSE,151,0.0,1.0,90,0.00,,,0.00,Wunderground v.1.15,2013-03-03 09:13:00,
2013-03-03 04:14:00,23.4,20.9,29.68,SW,215,0.0,1.0,90,0.00,,,0.00,Wunderground v.1.15,2013-03-03 09:14:00,
2013-03-03 04:17:00,23.4,20.9,29.68,SW,216,0.0,1.0,90,0.00,,,0.00,Wunderground v.1.15,2013-03-03 09:17:00,
2013-03-03 04:18:00,23.4,20.9,29.68,SW,215,0.0,1.0,90,0.00,,,0.00,Wunderground v.1.15,2013-03-03 09:18:00,
2013-03-03 04:19:00,23.4,20.9,29.68,SW,215,0.0,1.0,90,0.00,,,0.00,Wunderground v.1.15,2013-03-03 09:19:00,
2013-03-03 04:22:00,23.4,20.6,29.68,SW,214,0.0,1.0,89,0.00,,,0.00,Wunderground v.1.15,2013-03-03 09:22:00,
2013-03-03 04:23:00,23.4,20.9,29.68,SSW,208,0.0,2.0,90,0.00,,,0.00,Wunderground v.1.15,2013-03-03 09:23:00,
2013-03-03 04:24:00,23.4,20.9,29.68,SSW,208,0.0,2.0,90,0.00,,,0.00,Wunderground v.1.15,2013-03-03 09:24:00,
2013-03-03 04:27:00,23.3,20.8,29.68,East,101,1.0,2.0,90,0.00,,,0.00,Wunderground v.1.15,2013-03-03 09:27:00,
2013-03-03 04:29:00,23.3,20.5,29.69,West,260,0.0,3.0,89,0.00,,,0.00,Wunderground v.1.15,2013-03-03 09:29:00,
2013-03-03 04:32:00,23.3,20.5,29.68,West,260,1.0,1.0,89,0.00,,,0.00,Wunderground v.1.15,2013-03-03 09:32:00,
2013-03-03 04:34:00,23.2,20.7,29.68,West,260,0.0,1.0,90,0.00,,,0.00,Wunderground v.1.15,2013-03-03 09:34:00,
2013-03-03 04:37:00,23.3,20.5,29.68,WSW,239,0.0,1.0,89,0.00,,,0.00,Wunderground v.1.15,2013-03-03 09:37:00,
2013-03-03 04:39:00,23.2,20.4,29.68,East,96,1.0,2.0,89,0.00,,,0.00,Wunderground v.1.15,2013-03-03 09:39:00,
2013-03-03 04:42:00,23.2,20.4,29.68,East,82,0.0,3.0,89,0.00,,,0.00,Wunderground v.1.15,2013-03-03 09:42:00,
2013-03-03 04:44:00,23.2,20.4,29.68,South,172,0.0,3.0,89,0.00,,,0.00,Wunderground v.1.15,2013-03-03 09:44:00,
2013-03-03 04:47:00,23.2,20.7,29.68,SE,129,0.0,3.0,90,0.00,,,0.00,Wunderground v.1.15,2013-03-03 09:47:00,
2013-03-03 04:49:00,23.2,20.4,29.68,ESE,117,3.0,3.0,89,0.00,,,0.00,Wunderground v.1.15,2013-03-03 09:49:00,
2013-03-03 04:50:00,23.2,20.4,29.69,ESE,113,0.0,1.0,89,0.00,,,0.00,Wunderground v.1.15,2013-03-03 09:50:00,
2013-03-03 04:53:00,23.1,20.3,29.68,South,191,1.0,1.0,89,0.00,,,0.00,Wunderground v.1.15,2013-03-03 09:53:00,
2013-03-03 04:54:00,23.1,20.3,29.69,SE,136,0.0,1.0,89,0.00,,,0.00,Wunderground v.1.15,2013-03-03 09:54:00,
2013-03-03 04:55:00,23.1,20.3,29.69,SE,136,0.0,1.0,89,0.00,,,0.00,Wunderground v.1.15,2013-03-03 09:55:00,
2013-03-03 04:58:00,23.1,20.6,29.69,SE,129,1.0,1.0,90,0.00,,,0.00,Wunderground v.1.15,2013-03-03 09:58:00,
2013-03-03 04:59:00,23.1,20.6,29.69,SE,129,0.0,1.0,90,0.00,,,0.00,Wunderground v.1.15,2013-03-03 09:59:00,
2013-03-03 05:01:00,23.1,20.6,29.69,SE,134,0.0,1.0,90,0.00,,,0.00,Wunderground v.1.15,2013-03-03 10:01:00,
2013-03-03 05:03:00,23.1,20.6,29.69,SE,130,0.0,1.0,90,0.00,,,0.00,Wunderground v.1.15,2013-03-03 10:03:00,
2013-03-03 05:04:00,23.1,20.6,29.69,SE,129,0.0,1.0,90,0.00,,,0.00,Wunderground v.1.15,2013-03-03 10:04:00,
2013-03-03 05:06:00,23.0,20.5,29.69,ESE,109,1.0,1.0,90,0.00,,,0.00,Wunderground v.1.15,2013-03-03 10:06:00,
2013-03-03 05:08:00,23.0,20.5,29.68,East,98,0.0,3.0,90,0.00,,,0.00,Wunderground v.1.15,2013-03-03 10:08:00,
2013-03-03 05:09:00,23.0,20.5,29.69,East,99,0.0,3.0,90,0.00,,,0.00,Wunderground v.1.15,2013-03-03 10:09:00,
2013-03-03 05:11:00,23.0,20.5,29.69,South,186,0.0,1.0,90,0.00,,,0.00,Wunderground v.1.15,2013-03-03 10:11:00,
2013-03-03 05:13:00,23.0,20.5,29.69,South,187,0.0,1.0,90,0.00,,,0.00,Wunderground v.1.15,2013-03-03 10:13:00,
2013-03-03 05:14:00,22.9,20.4,29.69,SSE,164,0.0,1.0,90,0.00,,,0.00,Wunderground v.1.15,2013-03-03 10:14:00,
2013-03-03 05:15:00,22.9,20.4,29.69,SE,134,1.0,1.0,90,0.00,,,0.00,Wunderground v.1.15,2013-03-03 10:15:00,
2013-03-03 05:17:00,22.9,20.4,29.69,SSE,148,0.0,1.0,90,0.00,,,0.00,Wunderground v.1.15,2013-03-03 10:17:00,
2013-03-03 05:18:00,22.9,20.4,29.69,ESE,112,0.0,2.0,90,0.00,,,0.00,Wunderground v.1.15,2013-03-03 10:18:00,
2013-03-03 05:19:00,22.9,20.4,29.69,ESE,112,0.0,2.0,90,0.00,,,0.00,Wunderground v.1.15,2013-03-03 10:19:00,
2013-03-03 05:20:00,22.9,20.4,29.69,ESE,114,0.0,0.0,90,0.00,,,0.00,Wunderground v.1.15,2013-03-03 10:20:00,
2013-03-03 05:22:00,22.9,20.4,29.69,ESE,115,0.0,0.0,90,0.00,,,0.00,Wunderground v.1.15,2013-03-03 10:22:00,
2013-03-03 05:24:00,22.9,20.4,29.69,ESE,114,0.0,0.0,90,0.00,,,0.00,Wunderground v.1.15,2013-03-03 10:24:00,
2013-03-03 05:25:00,22.9,20.4,29.69,ESE,115,0.0,0.0,90,0.00,,,0.00,Wunderground v.1.15,2013-03-03 10:25:00,
2013-03-03 05:27:00,22.9,20.4,29.69,East,96,2.0,3.0,90,0.00,,,0.00,Wunderground v.1.15,2013-03-03 10:27:00,
2013-03-03 05:29:00,22.9,20.4,29.69,East,90,0.0,3.0,90,0.00,,,0.00,Wunderground v.1.15,2013-03-03 10:29:00,
2013-03-03 05:30:00,22.9,20.4,29.69,East,90,0.0,1.0,90,0.00,,,0.00,Wunderground v.1.15,2013-03-03 10:30:00,
2013-03-03 05:32:00,22.9,20.4,29.69,East,91,0.0,1.0,90,0.00,,,0.00,Wunderground v.1.15,2013-03-03 10:32:00,
2013-03-03 05:34:00,22.9,20.4,29.69,ESE,103,0.0,2.0,90,0.00,,,0.00,Wunderground v.1.15,2013-03-03 10:34:00,
2013-03-03 05:35:00,22.9,20.4,29.69,ESE,107,1.0,2.0,90,0.00,,,0.00,Wunderground v.1.15,2013-03-03 10:35:00,
2013-03-03 05:37:00,22.9,20.4,29.69,South,181,0.0,2.0,90,0.00,,,0.00,Wunderground v.1.15,2013-03-03 10:37:00,
2013-03-03 05:39:00,22.9,20.4,29.69,SSE,148,0.0,2.0,90,0.00,,,0.00,Wunderground v.1.15,2013-03-03 10:39:00,
2013-03-03 05:40:00,22.8,20.3,29.69,SE,141,1.0,2.0,90,0.00,,,0.00,Wunderground v.1.15,2013-03-03 10:40:00,
2013-03-03 05:41:00,22.8,20.3,29.69,SE,141,0.0,0.0,90,0.00,,,0.00,Wunderground v.1.15,2013-03-03 10:41:00,
2013-03-03 05:43:00,22.8,20.3,29.69,ESE,120,0.0,2.0,90,0.00,,,0.00,Wunderground v.1.15,2013-03-03 10:43:00,
2013-03-03 05:44:00,22.8,20.3,29.69,East,88,1.0,2.0,90,0.00,,,0.00,Wunderground v.1.15,2013-03-03 10:44:00,
2013-03-03 05:46:00,22.7,20.2,29.69,ENE,72,0.0,2.0,90,0.00,,,0.00,Wunderground v.1.15,2013-03-03 10:46:00,
2013-03-03 05:48:00,22.7,20.2,29.69,East,93,4.0,4.0,90,0.00,,,0.00,Wunderground v.1.15,2013-03-03 10:48:00,
2013-03-03 05:50:00,22.7,20.2,29.69,East,83,1.0,1.0,90,0.00,,,0.00,Wunderground v.1.15,2013-03-03 10:50:00,
2013-03-03 05:51:00,22.7,20.2,29.69,SE,134,0.0,3.0,90,0.00,,,0.00,Wunderground v.1.15,2013-03-03 10:51:00,
2013-03-03 05:53:00,22.7,20.2,29.69,SE,133,0.0,3.0,90,0.00,,,0.00,Wunderground v.1.15,2013-03-03 10:53:00,
2013-03-03 05:55:00,22.6,20.1,29.69,WSW,237,0.0,3.0,90,0.00,,,0.00,Wunderground v.1.15,2013-03-03 10:55:00,
2013-03-03 05:56:00,22.6,20.1,29.69,SW,235,0.0,3.0,90,0.00,,,0.00,Wunderground v.1.15,2013-03-03 10:56:00,
2013-03-03 05:58:00,22.6,20.1,29.69,East,97,1.0,3.0,90,0.00,,,0.00,Wunderground v.1.15,2013-03-03 10:58:00,
2013-03-03 06:00:00,22.6,20.1,29.69,SSE,165,0.0,1.0,90,0.00,,,0.00,Wunderground v.1.15,2013-03-03 11:00:00,
2013-03-03 06:02:00,22.6,20.1,29.69,East,98,1.0,1.0,90,0.00,,,0.00,Wunderground v.1.15,2013-03-03 11:02:00,
2013-03-03 06:03:00,22.5,20.0,29.69,East,98,1.0,1.0,90,0.00,,,0.00,Wunderground v.1.15,2013-03-03 11:03:00,
2013-03-03 06:05:00,22.5,20.0,29.69,East,99,0.0,1.0,90,0.00,,,0.00,Wunderground v.1.15,2013-03-03 11:05:00,
2013-03-03 06:07:00,22.5,20.0,29.69,SE,138,2.0,4.0,90,0.00,,,0.00,Wunderground v.1.15,2013-03-03 11:07:00,
2013-03-03 06:08:00,22.5,20.0,29.69,East,98,2.0,4.0,90,0.00,,,0.00,Wunderground v.1.15,2013-03-03 11:08:00,
2013-03-03 06:11:00,22.5,20.0,29.69,East,86,0.0,2.0,90,0.00,,,0.00,Wunderground v.1.15,2013-03-03 11:11:00,
2013-03-03 06:12:00,22.5,20.0,29.69,East,94,0.0,2.0,90,0.00,,,0.00,Wunderground v.1.15,2013-03-03 11:12:00,
2013-03-03 06:13:00,22.5,20.0,29.69,East,94,0.0,2.0,90,0.00,,,0.00,Wunderground v.1.15,2013-03-03 11:13:00,
2013-03-03 06:16:00,22.5,20.0,29.69,East,94,0.0,2.0,90,0.00,,,0.00,Wunderground v.1.15,2013-03-03 11:16:00,
2013-03-03 06:18:00,22.5,20.0,29.69,SE,134,0.0,2.0,90,0.00,,,0.00,Wunderground v.1.15,2013-03-03 11:18:00,
2013-03-03 06:21:00,22.5,20.0,29.69,ESE,118,0.0,1.0,90,0.00,,,0.00,Wunderground v.1.15,2013-03-03 11:21:00,
2013-03-03 06:23:00,22.5,20.0,29.69,East,88,0.0,3.0,90,0.00,,,0.00,Wunderground v.1.15,2013-03-03 11:23:00,
2013-03-03 06:26:00,22.5,20.0,29.69,ENE,68,0.0,3.0,90,0.00,,,0.00,Wunderground v.1.15,2013-03-03 11:26:00,
2013-03-03 06:28:00,22.5,20.0,29.69,East,82,1.0,3.0,90,0.00,,,0.00,Wunderground v.1.15,2013-03-03 11:28:00,
2013-03-03 06:31:00,22.5,20.0,29.69,East,82,0.0,1.0,90,0.00,,,0.00,Wunderground v.1.15,2013-03-03 11:31:00,
2013-03-03 06:33:00,22.5,20.0,29.69,ESE,117,1.0,2.0,90,0.00,,,0.00,Wunderground v.1.15,2013-03-03 11:33:00,
2013-03-03 06:36:00,22.5,20.0,29.69,South,184,0.0,2.0,90,0.00,,,0.00,Wunderground v.1.15,2013-03-03 11:36:00,
2013-03-03 06:38:00,22.5,20.0,29.69,South,185,0.0,2.0,90,0.00,,,0.00,Wunderground v.1.15,2013-03-03 11:38:00,
2013-03-03 06:39:00,22.5,20.0,29.69,South,184,0.0,2.0,90,0.00,,,0.00,Wunderground v.1.15,2013-03-03 11:39:00,
2013-03-03 06:41:00,22.5,20.0,29.69,South,184,1.0,1.0,90,0.00,,,0.00,Wunderground v.1.15,2013-03-03 11:41:00,
2013-03-03 06:43:00,22.5,20.0,29.69,ESE,121,0.0,1.0,90,0.00,,,0.00,Wunderground v.1.15,2013-03-03 11:43:00,
2013-03-03 06:44:00,22.5,20.0,29.69,ESE,121,0.0,1.0,90,0.00,,,0.00,Wunderground v.1.15,2013-03-03 11:44:00,
2013-03-03 06:46:00,22.6,20.1,29.69,SE,124,1.0,1.0,90,0.00,,,0.00,Wunderground v.1.15,2013-03-03 11:46:00,
2013-03-03 06:48:00,22.6,20.1,29.69,SSE,163,1.0,1.0,90,0.00,,,0.00,Wunderground v.1.15,2013-03-03 11:48:00,
2013-03-03 06:49:00,22.6,20.1,29.69,SE,141,2.0,2.0,90,0.00,,,0.00,Wunderground v.1.15,2013-03-03 11:49:00,
2013-03-03 06:51:00,22.7,20.2,29.69,South,171,0.0,1.0,90,0.00,,,0.00,Wunderground v.1.15,2013-03-03 11:51:00,
2013-03-03 06:53:00,22.7,20.2,29.69,SW,226,0.0,1.0,90,0.00,,,0.00,Wunderground v.1.15,2013-03-03 11:53:00,
2013-03-03 06:54:00,22.7,20.2,29.69,East,94,1.0,1.0,90,0.00,,,0.00,Wunderground v.1.15,2013-03-03 11:54:00,
2013-03-03 06:56:00,22.7,20.2,29.70,SSW,197,0.0,3.0,90,0.00,,,0.00,Wunderground v.1.15,2013-03-03 11:56:00,
2013-03-03 06:59:00,22.8,20.3,29.70,SW,229,0.0,3.0,90,0.00,,,0.00,Wunderground v.1.15,2013-03-03 11:59:00,
2013-03-03 07:02:00,22.8,20.3,29.70,West,280,0.0,2.0,90,0.00,,,0.00,Wunderground v.1.15,2013-03-03 12:02:00,
2013-03-03 07:04:00,22.9,20.4,29.70,NE,56,1.0,2.0,90,0.00,,,0.00,Wunderground v.1.15,2013-03-03 12:04:00,
2013-03-03 07:07:00,22.9,20.4,29.70,SSW,211,2.0,3.0,90,0.00,,,0.00,Wunderground v.1.15,2013-03-03 12:07:00,
2013-03-03 07:09:00,22.9,20.4,29.70,South,190,0.0,3.0,90,0.00,,,0.00,Wunderground v.1.15,2013-03-03 12:09:00,
2013-03-03 07:12:00,22.9,20.4,29.70,South,185,0.0,1.0,90,0.00,,,0.00,Wunderground v.1.15,2013-03-03 12:12:00,
2013-03-03 07:14:00,22.9,20.4,29.70,South,179,0.0,1.0,90,0.00,,,0.00,Wunderground v.1.15,2013-03-03 12:14:00,
2013-03-03 07:17:00,23.0,20.5,29.70,ESE,114,1.0,1.0,90,0.00,,,0.00,Wunderground v.1.15,2013-03-03 12:17:00,
2013-03-03 07:19:00,23.0,20.5,29.70,ESE,115,0.0,1.0,90,0.00,,,0.00,Wunderground v.1.15,2013-03-03 12:19:00,
2013-03-03 07:22:00,23.1,20.6,29.70,West,260,0.0,1.0,90,0.00,,,0.00,Wunderground v.1.15,2013-03-03 12:22:00,
2013-03-03 07:23:00,23.1,20.6,29.70,West,260,0.0,1.0,90,0.00,,,0.00,Wunderground v.1.15,2013-03-03 12:23:00,
2013-03-03 07:24:00,23.1,20.6,29.70,West,260,0.0,1.0,90,0.00,,,0.00,Wunderground v.1.15,2013-03-03 12:24:00,
2013-03-03 07:25:00,23.2,20.7,29.70,WSW,246,0.0,1.0,90,0.00,,,0.00,Wunderground v.1.15,2013-03-03 12:25:00,
2013-03-03 07:28:00,23.2,20.7,29.70,SSE,163,0.0,2.0,90,0.00,,,0.00,Wunderground v.1.15,2013-03-03 12:28:00,
2013-03-03 07:29:00,23.2,20.7,29.70,SSE,163,0.0,2.0,90,0.00,,,0.00,Wunderground v.1.15,2013-03-03 12:29:00,
2013-03-03 07:30:00,23.2,20.7,29.70,SSE,163,0.0,0.0,90,0.00,,,0.00,Wunderground v.1.15,2013-03-03 12:30:00,
2013-03-03 07:33:00,23.4,20.9,29.70,SSE,158,0.0,0.0,90,0.00,,,0.00,Wunderground v.1.15,2013-03-03 12:33:00,
2013-03-03 07:34:00,23.4,20.9,29.70,SE,125,0.0,1.0,90,0.00,,,0.00,Wunderground v.1.15,2013-03-03 12:34:00,
2013-03-03 07:35:00,23.4,20.6,29.70,SSW,194,0.0,1.0,89,0.00,,,0.00,Wunderground v.1.15,2013-03-03 12:35:00,
2013-03-03 07:38:00,23.5,20.7,29.70,SW,224,0.0,2.0,89,0.00,,,0.00,Wunderground v.1.15,2013-03-03 12:38:00,
2013-03-03 07:39:00,23.4,20.6,29.70,SW,224,0.0,2.0,89,0.00,,,0.00,Wunderground v.1.15,2013-03-03 12:39:00,
2013-03-03 07:40:00,23.5,20.7,29.70,SW,217,1.0,1.0,89,0.00,,,0.00,Wunderground v.1.15,2013-03-03 12:40:00,
2013-03-03 07:43:00,23.6,20.8,29.70,SE,128,1.0,2.0,89,0.00,,,0.00,Wunderground v.1.15,2013-03-03 12:43:00,
2013-03-03 07:58:00,23.8,21.0,29.70,South,170,0.0,1.0,89,0.00,,,0.00,Wunderground v.1.15,2013-03-03 12:58:00,
2013-03-03 08:03:00,23.9,20.9,29.70,SE,139,2.0,3.0,88,0.00,,,0.00,Wunderground v.1.15,2013-03-03 13:03:00,
2013-03-03 08:04:00,24.0,21.0,29.70,ESE,109,2.0,3.0,88,0.00,,,0.00,Wunderground v.1.15,2013-03-03 13:04:00,
2013-03-03 08:08:00,24.0,21.0,29.70,SSW,207,0.0,3.0,88,0.00,,,0.00,Wunderground v.1.15,2013-03-03 13:08:00,
2013-03-03 08:09:00,24.0,21.0,29.70,SSW,207,0.0,3.0,88,0.00,,,0.00,Wunderground v.1.15,2013-03-03 13:09:00,
2013-03-03 08:13:00,24.2,21.2,29.70,East,97,0.0,2.0,88,0.00,,,0.00,Wunderground v.1.15,2013-03-03 13:13:00,
2013-03-03 08:14:00,24.2,21.2,29.70,SE,127,0.0,2.0,88,0.00,,,0.00,Wunderground v.1.15,2013-03-03 13:14:00,
2013-03-03 08:19:00,24.4,21.4,29.70,East,94,2.0,3.0,88,0.00,,,0.00,Wunderground v.1.15,2013-03-03 13:19:00,
2013-03-03 08:20:00,24.4,21.4,29.70,SE,138,1.0,3.0,88,0.00,,,0.00,Wunderground v.1.15,2013-03-03 13:20:00,
2013-03-03 08:24:00,24.5,21.5,29.70,SE,129,1.0,2.0,88,0.00,,,0.00,Wunderground v.1.15,2013-03-03 13:24:00,
2013-03-03 08:25:00,24.5,21.5,29.70,East,91,0.0,2.0,88,0.00,,,0.00,Wunderground v.1.15,2013-03-03 13:25:00,
2013-03-03 08:29:00,24.6,21.6,29.70,SSE,151,0.0,2.0,88,0.00,,,0.00,Wunderground v.1.15,2013-03-03 13:29:00,
2013-03-03 08:30:00,24.7,21.7,29.70,SSE,150,0.0,0.0,88,0.00,,,0.00,Wunderground v.1.15,2013-03-03 13:30:00,
2013-03-03 08:34:00,24.8,21.8,29.70,SSE,164,0.0,2.0,88,0.00,,,0.00,Wunderground v.1.15,2013-03-03 13:34:00,
2013-03-03 08:35:00,24.9,21.8,29.70,SSE,156,0.0,2.0,88,0.00,,,0.00,Wunderground v.1.15,2013-03-03 13:35:00,
2013-03-03 08:39:00,25.1,21.8,29.70,SSE,148,2.0,3.0,87,0.00,,,0.00,Wunderground v.1.15,2013-03-03 13:39:00,
2013-03-03 08:40:00,25.1,21.8,29.70,SSE,160,0.0,1.0,87,0.00,,,0.00,Wunderground v.1.15,2013-03-03 13:40:00,
2013-03-03 08:44:00,25.1,21.5,29.70,East,86,2.0,2.0,86,0.00,,,0.00,Wunderground v.1.15,2013-03-03 13:44:00,
2013-03-03 08:45:00,25.1,21.8,29.70,East,85,0.0,2.0,87,0.00,,,0.00,Wunderground v.1.15,2013-03-03 13:45:00,
2013-03-03 08:49:00,25.3,22.0,29.70,SSE,162,0.0,3.0,87,0.00,,,0.00,Wunderground v.1.15,2013-03-03 13:49:00,
2013-03-03 08:50:00,25.3,22.0,29.69,SSE,167,1.0,1.0,87,0.00,,,0.00,Wunderground v.1.15,2013-03-03 13:50:00,
2013-03-03 08:51:00,25.4,22.1,29.69,SSE,150,0.0,1.0,87,0.00,,,0.00,Wunderground v.1.15,2013-03-03 13:51:00,
2013-03-03 08:54:00,25.4,21.8,29.69,SE,129,0.0,3.0,86,0.00,,,0.00,Wunderground v.1.15,2013-03-03 13:54:00,
2013-03-03 08:55:00,25.4,21.8,29.69,East,84,2.0,3.0,86,0.00,,,0.00,Wunderground v.1.15,2013-03-03 13:55:00,
2013-03-03 08:56:00,25.4,22.1,29.69,ESE,102,1.0,3.0,87,0.00,,,0.00,Wunderground v.1.15,2013-03-03 13:56:00,
2013-03-03 08:59:00,25.5,22.4,29.69,SE,133,0.0,3.0,88,0.00,,,0.00,Wunderground v.1.15,2013-03-03 13:59:00,
2013-03-03 09:01:00,25.5,22.4,29.69,WSW,252,2.0,2.0,88,0.00,,,0.00,Wunderground v.1.15,2013-03-03 14:01:00,
2013-03-03 09:02:00,25.5,22.4,29.69,WSW,242,1.0,2.0,88,0.00,,,0.00,Wunderground v.1.15,2013-03-03 14:02:00,
2013-03-03 09:05:00,25.6,22.5,29.69,East,94,1.0,2.0,88,0.00,,,0.00,Wunderground v.1.15,2013-03-03 14:05:00,
2013-03-03 09:06:00,25.8,22.7,29.69,ESE,103,2.0,3.0,88,0.00,,,0.00,Wunderground v.1.15,2013-03-03 14:06:00,
2013-03-03 09:07:00,25.8,22.7,29.69,ESE,103,2.0,3.0,88,0.00,,,0.00,Wunderground v.1.15,2013-03-03 14:07:00,
2013-03-03 09:10:00,25.9,22.8,29.69,SW,218,0.0,3.0,88,0.00,,,0.00,Wunderground v.1.15,2013-03-03 14:10:00,
2013-03-03 09:12:00,26.1,23.0,29.69,West,263,0.0,2.0,88,0.00,,,0.00,Wunderground v.1.15,2013-03-03 14:12:00,
2013-03-03 09:15:00,26.3,23.0,29.69,ESE,105,1.0,2.0,87,0.00,,,0.00,Wunderground v.1.15,2013-03-03 14:15:00,
2013-03-03 09:17:00,26.5,23.2,29.69,SE,133,0.0,3.0,87,0.00,,,0.00,Wunderground v.1.15,2013-03-03 14:17:00,
2013-03-03 09:20:00,26.7,23.4,29.69,ESE,116,0.0,1.0,87,0.00,,,0.00,Wunderground v.1.15,2013-03-03 14:20:00,
2013-03-03 09:22:00,26.9,23.3,29.69,SE,134,0.0,2.0,86,0.00,,,0.00,Wunderground v.1.15,2013-03-03 14:22:00,
2013-03-03 09:25:00,27.1,23.2,29.69,East,80,0.0,2.0,85,0.00,,,0.00,Wunderground v.1.15,2013-03-03 14:25:00,
2013-03-03 09:27:00,27.3,23.4,29.69,ESE,105,0.0,2.0,85,0.00,,,0.00,Wunderground v.1.15,2013-03-03 14:27:00,
2013-03-03 09:30:00,27.5,23.6,29.70,SSW,204,0.0,1.0,85,0.00,,,0.00,Wunderground v.1.15,2013-03-03 14:30:00,
2013-03-03 09:32:00,27.7,23.5,29.69,East,96,1.0,2.0,84,0.00,,,0.00,Wunderground v.1.15,2013-03-03 14:32:00,
2013-03-03 09:35:00,27.8,23.6,29.69,East,90,1.0,2.0,84,0.00,,,0.00,Wunderground v.1.15,2013-03-03 14:35:00,
2013-03-03 09:37:00,27.9,23.7,29.69,East,84,2.0,4.0,84,0.00,,,0.00,Wunderground v.1.15,2013-03-03 14:37:00,
2013-03-03 09:38:00,27.9,23.7,29.69,SW,227,1.0,4.0,84,0.00,,,0.00,Wunderground v.1.15,2013-03-03 14:38:00,
2013-03-03 09:40:00,27.8,23.6,29.69,SW,221,1.0,1.0,84,0.00,,,0.00,Wunderground v.1.15,2013-03-03 14:40:00,
2013-03-03 09:42:00,27.8,23.3,29.69,SW,224,0.0,2.0,83,0.00,,,0.00,Wunderground v.1.15,2013-03-03 14:42:00,
2013-03-03 09:45:00,27.7,23.2,29.69,SE,141,3.0,5.0,83,0.00,,,0.00,Wunderground v.1.15,2013-03-03 14:45:00,
2013-03-03 09:47:00,27.7,23.2,29.69,ESE,115,1.0,5.0,83,0.00,,,0.00,Wunderground v.1.15,2013-03-03 14:47:00,
2013-03-03 09:48:00,27.7,23.2,29.69,ESE,115,1.0,5.0,83,0.00,,,0.00,Wunderground v.1.15,2013-03-03 14:48:00,
2013-03-03 09:50:00,27.7,23.5,29.69,WSW,246,0.0,1.0,84,0.00,,,0.00,Wunderground v.1.15,2013-03-03 14:50:00,
2013-03-03 09:52:00,27.8,23.3,29.69,WSW,239,0.0,1.0,83,0.00,,,0.00,Wunderground v.1.15,2013-03-03 14:52:00,
2013-03-03 09:53:00,27.8,23.3,29.69,WSW,241,0.0,1.0,83,0.00,,,0.00,Wunderground v.1.15,2013-03-03 14:53:00,
2013-03-03 09:56:00,28.0,23.5,29.69,ENE,71,2.0,3.0,83,0.00,,,0.00,Wunderground v.1.15,2013-03-03 14:56:00,
2013-03-03 09:58:00,28.0,23.5,29.69,NNE,26,1.0,3.0,83,0.00,,,0.00,Wunderground v.1.15,2013-03-03 14:58:00,
2013-03-03 10:02:00,28.1,23.9,29.69,WSW,238,2.0,2.0,84,0.00,,,0.00,Wunderground v.1.15,2013-03-03 15:02:00,
2013-03-03 10:03:00,28.3,23.8,29.69,NE,54,2.0,2.0,83,0.00,,,0.00,Wunderground v.1.15,2013-03-03 15:03:00,
2013-03-03 10:07:00,28.4,23.9,29.69,East,88,1.0,3.0,83,0.00,,,0.00,Wunderground v.1.15,2013-03-03 15:07:00,
2013-03-03 10:08:00,28.4,23.9,29.69,WSW,243,1.0,3.0,83,0.00,,,0.00,Wunderground v.1.15,2013-03-03 15:08:00,
2013-03-03 10:12:00,28.6,24.4,29.68,East,96,1.0,2.0,84,0.00,,,0.00,Wunderground v.1.15,2013-03-03 15:12:00,
2013-03-03 10:13:00,28.6,24.4,29.69,East,96,0.0,2.0,84,0.00,,,0.00,Wunderground v.1.15,2013-03-03 15:13:00,
2013-03-03 10:14:00,28.7,24.5,29.68,SE,134,1.0,2.0,84,0.00,,,0.00,Wunderground v.1.15,2013-03-03 15:14:00,
2013-03-03 10:17:00,28.9,24.7,29.68,SW,233,1.0,3.0,84,0.00,,,0.00,Wunderground v.1.15,2013-03-03 15:17:00,
2013-03-03 10:18:00,29.0,24.8,29.68,SW,222,1.0,3.0,84,0.00,,,0.00,Wunderground v.1.15,2013-03-03 15:18:00,
2013-03-03 10:19:00,29.0,24.8,29.68,SW,218,0.0,3.0,84,0.00,,,0.00,Wunderground v.1.15,2013-03-03 15:19:00,
2013-03-03 10:22:00,29.2,25.0,29.68,SSW,210,2.0,2.0,84,0.00,,,0.00,Wunderground v.1.15,2013-03-03 15:22:00,
2013-03-03 10:23:00,29.3,25.1,29.68,SSW,210,0.0,2.0,84,0.00,,,0.00,Wunderground v.1.15,2013-03-03 15:23:00,
2013-03-03 10:24:00,29.3,25.1,29.68,East,94,1.0,2.0,84,0.00,,,0.00,Wunderground v.1.15,2013-03-03 15:24:00,
2013-03-03 10:27:00,29.7,25.2,29.68,SSW,203,0.0,2.0,83,0.00,,,0.00,Wunderground v.1.15,2013-03-03 15:27:00,
2013-03-03 10:28:00,29.8,25.3,29.68,ESE,103,0.0,2.0,83,0.00,,,0.00,Wunderground v.1.15,2013-03-03 15:28:00,
2013-03-03 10:29:00,29.8,25.3,29.68,ESE,103,0.0,2.0,83,0.00,,,0.00,Wunderground v.1.15,2013-03-03 15:29:00,
2013-03-03 10:32:00,29.9,24.8,29.68,SSE,148,1.0,3.0,81,0.00,,,0.00,Wunderground v.1.15,2013-03-03 15:32:00,
2013-03-03 10:33:00,29.9,24.5,29.68,SSE,151,1.0,3.0,80,0.00,,,0.00,Wunderground v.1.15,2013-03-03 15:33:00,
2013-03-03 10:34:00,29.9,24.5,29.68,South,191,0.0,3.0,80,0.00,,,0.00,Wunderground v.1.15,2013-03-03 15:34:00,
2013-03-03 10:37:00,29.8,24.4,29.68,NNE,27,1.0,4.0,80,0.00,,,0.00,Wunderground v.1.15,2013-03-03 15:37:00,
2013-03-03 10:39:00,29.9,24.5,29.68,ESE,122,2.0,4.0,80,0.00,,,0.00,Wunderground v.1.15,2013-03-03 15:39:00,
2013-03-03 10:40:00,29.8,24.4,29.68,SW,224,0.0,1.0,80,0.00,,,0.00,Wunderground v.1.15,2013-03-03 15:40:00,
2013-03-03 10:43:00,30.1,24.7,29.68,East,90,1.0,5.0,80,0.00,,,0.00,Wunderground v.1.15,2013-03-03 15:43:00,
2013-03-03 10:44:00,30.1,24.7,29.68,East,90,0.0,5.0,80,0.00,,,0.00,Wunderground v.1.15,2013-03-03 15:44:00,
2013-03-03 10:45:00,30.1,24.7,29.68,SSE,160,1.0,5.0,80,0.00,,,0.00,Wunderground v.1.15,2013-03-03 15:45:00,
2013-03-03 10:49:00,30.3,24.9,29.68,East,101,3.0,5.0,80,0.00,,,0.00,Wunderground v.1.15,2013-03-03 15:49:00,
2013-03-03 10:50:00,30.3,24.9,29.68,East,88,1.0,1.0,80,0.00,,,0.00,Wunderground v.1.15,2013-03-03 15:50:00,
2013-03-03 10:54:00,30.1,24.4,29.68,ESE,105,2.0,4.0,79,0.00,,,0.00,Wunderground v.1.15,2013-03-03 15:54:00,
2013-03-03 10:55:00,30.1,24.7,29.68,SW,221,0.0,4.0,80,0.00,,,0.00,Wunderground v.1.15,2013-03-03 15:55:00,
2013-03-03 10:59:00,29.8,24.4,29.68,East,85,1.0,6.0,80,0.00,,,0.00,Wunderground v.1.15,2013-03-03 15:59:00,
2013-03-03 11:00:00,29.7,24.3,29.68,SE,132,0.0,2.0,80,0.00,,,0.00,Wunderground v.1.15,2013-03-03 16:00:00,
2013-03-03 11:04:00,29.4,24.0,29.68,East,86,1.0,3.0,80,0.00,,,0.00,Wunderground v.1.15,2013-03-03 16:04:00,
2013-03-03 11:05:00,29.3,23.9,29.68,East,86,0.0,3.0,80,0.00,,,0.00,Wunderground v.1.15,2013-03-03 16:05:00,
2013-03-03 11:09:00,29.4,24.6,29.68,ESE,105,0.0,3.0,82,0.00,,,0.00,Wunderground v.1.15,2013-03-03 16:09:00,
2013-03-03 11:10:00,29.5,24.7,29.68,SSE,153,3.0,3.0,82,0.00,,,0.00,Wunderground v.1.15,2013-03-03 16:10:00,
2013-03-03 11:14:00,29.7,24.9,29.68,East,94,4.0,4.0,82,0.00,,,0.00,Wunderground v.1.15,2013-03-03 16:14:00,
2013-03-03 11:15:00,29.7,24.9,29.68,East,98,2.0,4.0,82,0.00,,,0.00,Wunderground v.1.15,2013-03-03 16:15:00,
2013-03-03 11:16:00,29.7,24.9,29.68,ENE,70,2.0,4.0,82,0.00,,,0.00,Wunderground v.1.15,2013-03-03 16:16:00,
2013-03-03 11:19:00,30.1,25.3,29.68,ESE,105,1.0,4.0,82,0.00,,,0.00,Wunderground v.1.15,2013-03-03 16:19:00,
2013-03-03 11:20:00,30.1,25.3,29.68,SSE,167,0.0,1.0,82,0.00,,,0.00,Wunderground v.1.15,2013-03-03 16:20:00,
2013-03-03 11:21:00,30.3,25.5,29.68,ESE,105,2.0,4.0,82,0.00,,,0.00,Wunderground v.1.15,2013-03-03 16:21:00,
2013-03-03 11:24:00,30.7,25.6,29.68,East,85,2.0,5.0,81,0.00,,,0.00,Wunderground v.1.15,2013-03-03 16:24:00,
2013-03-03 11:25:00,30.7,25.6,29.68,NE,48,1.0,5.0,81,0.00,,,0.00,Wunderground v.1.15,2013-03-03 16:25:00,
2013-03-03 11:26:00,30.8,25.4,29.68,SE,134,1.0,5.0,80,0.00,,,0.00,Wunderground v.1.15,2013-03-03 16:26:00,
2013-03-03 11:29:00,30.8,25.4,29.68,East,91,1.0,6.0,80,0.00,,,0.00,Wunderground v.1.15,2013-03-03 16:29:00,
2013-03-03 11:30:00,30.8,25.4,29.68,ENE,75,1.0,2.0,80,0.00,,,0.00,Wunderground v.1.15,2013-03-03 16:30:00,
2013-03-03 11:31:00,30.8,25.1,29.68,ESE,117,1.0,4.0,79,0.00,,,0.00,Wunderground v.1.15,2013-03-03 16:31:00,
2013-03-03 11:35:00,31.2,26.0,29.68,ESE,103,4.0,5.0,81,0.00,,,0.00,Wunderground v.1.15,2013-03-03 16:35:00,
2013-03-03 11:36:00,31.4,25.9,29.68,SE,136,1.0,5.0,80,0.00,,,0.00,Wunderground v.1.15,2013-03-03 16:36:00,
2013-03-03 11:40:00,31.8,26.0,29.68,NNE,17,0.0,5.0,79,0.00,,,0.00,Wunderground v.1.15,2013-03-03 16:40:00,
2013-03-03 11:41:00,32.1,26.3,29.68,East,79,1.0,2.0,79,0.00,,,0.00,Wunderground v.1.15,2013-03-03 16:41:00,
2013-03-03 11:45:00,32.5,26.4,29.68,ESE,113,3.0,4.0,78,0.00,,,0.00,Wunderground v.1.15,2013-03-03 16:45:00,
2013-03-03 11:47:00,32.6,26.5,29.68,East,89,3.0,5.0,78,0.00,,,0.00,Wunderground v.1.15,2013-03-03 16:47:00,
2013-03-03 11:50:00,32.7,26.6,29.68,East,101,2.0,2.0,78,0.00,,,0.00,Wunderground v.1.15,2013-03-03 16:50:00,
2013-03-03 11:52:00,32.8,26.7,29.68,East,89,2.0,4.0,78,0.00,,,0.00,Wunderground v.1.15,2013-03-03 16:52:00,
2013-03-03 11:55:00,32.9,26.8,29.67,South,176,3.0,7.0,78,0.00,,,0.00,Wunderground v.1.15,2013-03-03 16:55:00,
2013-03-03 11:56:00,32.9,26.5,29.67,South,191,0.0,7.0,77,0.00,,,0.00,Wunderground v.1.15,2013-03-03 16:56:00,
2013-03-03 11:57:00,33.1,26.7,29.67,ENE,70,3.0,7.0,77,0.00,,,0.00,Wunderground v.1.15,2013-03-03 16:57:00,
2013-03-03 12:00:00,33.1,27.0,29.67,ESE,105,1.0,2.0,78,0.00,,,0.00,Wunderground v.1.15,2013-03-03 17:00:00,
2013-03-03 12:02:00,33.3,27.2,29.67,East,94,1.0,2.0,78,0.00,,,0.00,Wunderground v.1.15,2013-03-03 17:02:00,
2013-03-03 12:05:00,33.5,27.4,29.67,SE,128,1.0,4.0,78,0.00,,,0.00,Wunderground v.1.15,2013-03-03 17:05:00,
2013-03-03 12:07:00,33.4,26.6,29.67,SE,143,0.0,4.0,76,0.00,,,0.00,Wunderground v.1.15,2013-03-03 17:07:00,
2013-03-03 12:10:00,33.3,26.9,29.67,WSW,238,0.0,1.0,77,0.00,,,0.00,Wunderground v.1.15,2013-03-03 17:10:00,
2013-03-03 12:12:00,33.3,26.9,29.67,SW,221,1.0,3.0,77,0.00,,,0.00,Wunderground v.1.15,2013-03-03 17:12:00,
2013-03-03 12:15:00,33.3,26.9,29.67,East,81,0.0,4.0,77,0.00,,,0.00,Wunderground v.1.15,2013-03-03 17:15:00,
2013-03-03 12:17:00,33.3,26.9,29.67,ESE,118,1.0,4.0,77,0.00,,,0.00,Wunderground v.1.15,2013-03-03 17:17:00,
2013-03-03 12:21:00,32.9,26.5,29.67,East,90,1.0,1.0,77,0.00,,,0.00,Wunderground v.1.15,2013-03-03 17:21:00,
2013-03-03 12:22:00,32.9,26.5,29.67,SSE,162,0.0,1.0,77,0.00,,,0.00,Wunderground v.1.15,2013-03-03 17:22:00,
2013-03-03 12:26:00,32.8,26.4,29.67,NNE,15,0.0,2.0,77,0.00,,,0.00,Wunderground v.1.15,2013-03-03 17:26:00,
2013-03-03 12:27:00,32.7,26.3,29.67,NNE,15,0.0,2.0,77,0.00,,,0.00,Wunderground v.1.15,2013-03-03 17:27:00,
2013-03-03 12:28:00,32.8,26.4,29.67,NW,309,0.0,2.0,77,0.00,,,0.00,Wunderground v.1.15,2013-03-03 17:28:00,
2013-03-03 12:31:00,32.8,26.7,29.67,ESE,117,2.0,4.0,78,0.00,,,0.00,Wunderground v.1.15,2013-03-03 17:31:00,
2013-03-03 12:32:00,32.7,26.3,29.67,SW,218,1.0,4.0,77,0.00,,,0.00,Wunderground v.1.15,2013-03-03 17:32:00,
2013-03-03 12:33:00,32.6,26.2,29.67,SE,125,3.0,4.0,77,0.00,,,0.00,Wunderground v.1.15,2013-03-03 17:33:00,
2013-03-03 12:36:00,32.5,26.4,29.66,North,8,1.0,4.0,78,0.00,,,0.00,Wunderground v.1.15,2013-03-03 17:36:00,
2013-03-03 12:37:00,32.5,26.4,29.66,SSE,156,0.0,4.0,78,0.00,,,0.00,Wunderground v.1.15,2013-03-03 17:37:00,
2013-03-03 12:38:00,32.5,26.4,29.66,East,91,1.0,4.0,78,0.00,,,0.00,Wunderground v.1.15,2013-03-03 17:38:00,
2013-03-03 12:41:00,32.4,26.6,29.66,East,90,0.0,1.0,79,0.00,,,0.00,Wunderground v.1.15,2013-03-03 17:41:00,
2013-03-03 12:42:00,32.5,26.7,29.66,ESE,115,1.0,2.0,79,0.00,,,0.00,Wunderground v.1.15,2013-03-03 17:42:00,
2013-03-03 12:43:00,32.5,26.7,29.66,SE,142,3.0,3.0,79,0.00,,,0.00,Wunderground v.1.15,2013-03-03 17:43:00,
2013-03-03 12:46:00,32.3,26.2,29.66,SE,134,0.0,4.0,78,0.00,,,0.00,Wunderground v.1.15,2013-03-03 17:46:00,
2013-03-03 12:47:00,32.3,26.5,29.66,SSW,205,0.0,4.0,79,0.00,,,0.00,Wunderground v.1.15,2013-03-03 17:47:00,
2013-03-03 12:48:00,32.3,26.5,29.66,East,97,1.0,4.0,79,0.00,,,0.00,Wunderground v.1.15,2013-03-03 17:48:00,
2013-03-03 12:51:00,32.6,26.8,29.66,SSE,153,1.0,3.0,79,0.00,,,0.00,Wunderground v.1.15,2013-03-03 17:51:00,
2013-03-03 12:52:00,32.7,26.6,29.66,SSE,160,2.0,3.0,78,0.00,,,0.00,Wunderground v.1.15,2013-03-03 17:52:00,
2013-03-03 12:53:00,32.7,26.6,29.66,SE,129,1.0,3.0,78,0.00,,,0.00,Wunderground v.1.15,2013-03-03 17:53:00,
2013-03-03 12:56:00,32.8,26.1,29.66,SE,146,2.0,3.0,76,0.00,,,0.00,Wunderground v.1.15,2013-03-03 17:56:00,
2013-03-03 12:58:00,32.9,26.5,29.66,SE,136,0.0,5.0,77,0.00,,,0.00,Wunderground v.1.15,2013-03-03 17:58:00,
2013-03-03 13:02:00,33.1,26.4,29.66,SSW,200,0.0,5.0,76,0.00,,,0.00,Wunderground v.1.15,2013-03-03 18:02:00,
2013-03-03 13:03:00,33.1,26.4,29.66,SW,231,7.0,9.0,76,0.00,,,0.00,Wunderground v.1.15,2013-03-03 18:03:00,
2013-03-03 13:07:00,33.1,26.4,29.66,ENE,70,2.0,9.0,76,0.00,,,0.00,Wunderground v.1.15,2013-03-03 18:07:00,
2013-03-03 13:08:00,33.1,26.4,29.66,ENE,77,1.0,9.0,76,0.00,,,0.00,Wunderground v.1.15,2013-03-03 18:08:00,
2013-03-03 13:12:00,33.6,26.8,29.66,SE,130,1.0,4.0,76,0.00,,,0.00,Wunderground v.1.15,2013-03-03 18:12:00,
2013-03-03 13:13:00,33.6,26.8,29.65,NW,321,1.0,4.0,76,0.00,,,0.00,Wunderground v.1.15,2013-03-03 18:13:00,
2013-03-03 13:18:00,33.6,26.5,29.65,SE,129,4.0,7.0,75,0.00,,,0.00,Wunderground v.1.15,2013-03-03 18:18:00,
2013-03-03 13:19:00,33.5,26.4,29.65,SE,146,0.0,7.0,75,0.00,,,0.00,Wunderground v.1.15,2013-03-03 18:19:00,
2013-03-03 13:23:00,33.4,26.6,29.65,SE,146,0.0,5.0,76,0.00,,,0.00,Wunderground v.1.15,2013-03-03 18:23:00,
2013-03-03 13:24:00,33.5,26.7,29.65,SE,146,0.0,5.0,76,0.00,,,0.00,Wunderground v.1.15,2013-03-03 18:24:00,
2013-03-03 13:28:00,33.3,26.5,29.65,East,101,2.0,6.0,76,0.00,,,0.00,Wunderground v.1.15,2013-03-03 18:28:00,
2013-03-03 13:29:00,33.2,26.5,29.65,SE,129,0.0,6.0,76,0.00,,,0.00,Wunderground v.1.15,2013-03-03 18:29:00,
2013-03-03 13:33:00,33.1,26.7,29.65,SW,232,0.0,5.0,77,0.00,,,0.00,Wunderground v.1.15,2013-03-03 18:33:00,
2013-03-03 13:34:00,33.1,26.7,29.65,ENE,72,2.0,5.0,77,0.00,,,0.00,Wunderground v.1.15,2013-03-03 18:34:00,
2013-03-03 13:38:00,32.8,26.4,29.65,SSE,150,6.0,6.0,77,0.00,,,0.00,Wunderground v.1.15,2013-03-03 18:38:00,
2013-03-03 13:39:00,32.8,26.4,29.65,SE,143,3.0,7.0,77,0.00,,,0.00,Wunderground v.1.15,2013-03-03 18:39:00,
2013-03-03 13:43:00,32.8,26.4,29.65,ESE,117,1.0,3.0,77,0.00,,,0.00,Wunderground v.1.15,2013-03-03 18:43:00,
2013-03-03 13:44:00,32.8,26.4,29.65,ESE,117,1.0,3.0,77,0.00,,,0.00,Wunderground v.1.15,2013-03-03 18:44:00,
2013-03-03 13:45:00,32.8,26.7,29.65,ESE,117,0.0,3.0,78,0.00,,,0.00,Wunderground v.1.15,2013-03-03 18:45:00,
2013-03-03 13:49:00,33.1,27.0,29.65,SSW,205,0.0,3.0,78,0.00,,,0.00,Wunderground v.1.15,2013-03-03 18:49:00,
2013-03-03 13:50:00,33.2,26.8,29.65,SW,224,3.0,3.0,77,0.00,,,0.00,Wunderground v.1.15,2013-03-03 18:50:00,
2013-03-03 13:54:00,33.3,26.9,29.65,SE,129,0.0,3.0,77,0.00,,,0.00,Wunderground v.1.15,2013-03-03 18:54:00,
2013-03-03 13:55:00,33.3,26.9,29.65,SE,129,0.0,3.0,77,0.00,,,0.00,Wunderground v.1.15,2013-03-03 18:55:00,
2013-03-03 14:00:00,33.3,26.9,29.65,ENE,72,2.0,5.0,77,0.00,,,0.00,Wunderground v.1.15,2013-03-03 19:00:00,
2013-03-03 14:05:00,32.9,26.5,29.65,ESE,115,2.0,4.0,77,0.00,,,0.00,Wunderground v.1.15,2013-03-03 19:05:00,
2013-03-03 14:10:00,32.9,26.8,29.65,SSE,158,0.0,1.0,78,0.00,,,0.00,Wunderground v.1.15,2013-03-03 19:10:00,
2013-03-03 14:15:00,32.9,26.5,29.65,East,79,0.0,3.0,77,0.00,,,0.00,Wunderground v.1.15,2013-03-03 19:15:00,
2013-03-03 14:16:00,33.0,26.9,29.65,ESE,102,1.0,3.0,78,0.00,,,0.00,Wunderground v.1.15,2013-03-03 19:16:00,
2013-03-03 14:20:00,33.2,27.1,29.65,ENE,75,2.0,2.0,78,0.00,,,0.00,Wunderground v.1.15,2013-03-03 19:20:00,
2013-03-03 14:21:00,33.2,26.8,29.65,SW,224,1.0,2.0,77,0.00,,,0.00,Wunderground v.1.15,2013-03-03 19:21:00,
2013-03-03 14:25:00,33.3,26.9,29.65,ESE,115,0.0,3.0,77,0.00,,,0.00,Wunderground v.1.15,2013-03-03 19:25:00,
2013-03-03 14:26:00,33.3,26.9,29.65,SSE,153,1.0,6.0,77,0.00,,,0.00,Wunderground v.1.15,2013-03-03 19:26:00,
2013-03-03 14:30:00,33.5,27.1,29.65,SW,224,1.0,1.0,77,0.00,,,0.00,Wunderground v.1.15,2013-03-03 19:30:00,
2013-03-03 14:31:00,33.5,27.1,29.65,East,89,5.0,5.0,77,0.00,,,0.00,Wunderground v.1.15,2013-03-03 19:31:00,
2013-03-03 14:35:00,33.5,26.7,29.65,SW,224,4.0,5.0,76,0.00,,,0.00,Wunderground v.1.15,2013-03-03 19:35:00,
2013-03-03 14:36:00,33.5,26.7,29.65,SSW,205,1.0,5.0,76,0.00,,,0.00,Wunderground v.1.15,2013-03-03 19:36:00,
2013-03-03 14:37:00,33.5,26.7,29.65,SSW,210,0.0,5.0,76,0.00,,,0.00,Wunderground v.1.15,2013-03-03 19:37:00,
2013-03-03 14:40:00,33.6,26.8,29.65,SW,222,1.0,1.0,76,0.00,,,0.00,Wunderground v.1.15,2013-03-03 19:40:00,
2013-03-03 14:41:00,33.7,26.9,29.65,SSW,204,1.0,1.0,76,0.00,,,0.00,Wunderground v.1.15,2013-03-03 19:41:00,
2013-03-03 14:42:00,33.7,26.9,29.65,SW,221,1.0,2.0,76,0.00,,,0.00,Wunderground v.1.15,2013-03-03 19:42:00,
2013-03-03 14:45:00,34.0,27.2,29.65,East,101,3.0,3.0,76,0.00,,,0.00,Wunderground v.1.15,2013-03-03 19:45:00,
2013-03-03 14:46:00,33.9,27.1,29.65,East,82,2.0,3.0,76,0.00,,,0.00,Wunderground v.1.15,2013-03-03 19:46:00,
2013-03-03 14:47:00,33.9,27.1,29.65,East,97,0.0,3.0,76,0.00,,,0.00,Wunderground v.1.15,2013-03-03 19:47:00,
2013-03-03 14:51:00,33.9,27.1,29.65,SSE,150,0.0,1.0,76,0.00,,,0.00,Wunderground v.1.15,2013-03-03 19:51:00,
2013-03-03 14:53:00,34.0,27.2,29.65,ESE,102,3.0,4.0,76,0.00,,,0.00,Wunderground v.1.15,2013-03-03 19:53:00,
2013-03-03 14:56:00,33.9,27.1,29.65,ESE,103,4.0,4.0,76,0.00,,,0.00,Wunderground v.1.15,2013-03-03 19:56:00,
2013-03-03 14:58:00,33.8,27.0,29.65,South,169,0.0,6.0,76,0.00,,,0.00,Wunderground v.1.15,2013-03-03 19:58:00,
2013-03-03 15:02:00,33.7,27.3,29.65,East,96,2.0,2.0,77,0.00,,,0.00,Wunderground v.1.15,2013-03-03 20:02:00,
2013-03-03 15:03:00,33.7,27.3,29.65,ESE,103,1.0,3.0,77,0.00,,,0.00,Wunderground v.1.15,2013-03-03 20:03:00,
2013-03-03 15:07:00,33.4,26.6,29.65,East,79,3.0,6.0,76,0.00,,,0.00,Wunderground v.1.15,2013-03-03 20:07:00,
2013-03-03 15:08:00,33.4,26.6,29.65,ENE,68,1.0,6.0,76,0.00,,,0.00,Wunderground v.1.15,2013-03-03 20:08:00,
2013-03-03 15:12:00,33.2,27.1,29.65,ESE,115,1.0,4.0,78,0.00,,,0.00,Wunderground v.1.15,2013-03-03 20:12:00,
2013-03-03 15:13:00,33.2,27.1,29.65,SE,127,2.0,4.0,78,0.00,,,0.00,Wunderground v.1.15,2013-03-03 20:13:00,
2013-03-03 15:17:00,33.1,27.0,29.65,East,95,1.0,4.0,78,0.00,,,0.00,Wunderground v.1.15,2013-03-03 20:17:00,
2013-03-03 15:18:00,33.1,27.0,29.65,SE,125,1.0,4.0,78,0.00,,,0.00,Wunderground v.1.15,2013-03-03 20:18:00,
2013-03-03 15:22:00,33.1,27.0,29.65,ESE,118,0.0,3.0,78,0.00,,,0.00,Wunderground v.1.15,2013-03-03 20:22:00,
2013-03-03 15:23:00,33.1,27.0,29.65,ESE,119,0.0,3.0,78,0.00,,,0.00,Wunderground v.1.15,2013-03-03 20:23:00,
2013-03-03 15:24:00,33.1,27.0,29.65,SW,215,0.0,3.0,78,0.00,,,0.00,Wunderground v.1.15,2013-03-03 20:24:00,
2013-03-03 15:28:00,33.2,27.4,29.65,SE,126,1.0,3.0,79,0.00,,,0.00,Wunderground v.1.15,2013-03-03 20:28:00,
2013-03-03 15:29:00,33.2,27.4,29.65,ESE,116,0.0,3.0,79,0.00,,,0.00,Wunderground v.1.15,2013-03-03 20:29:00,
2013-03-03 15:33:00,33.1,27.0,29.65,ENE,77,2.0,5.0,78,0.00,,,0.00,Wunderground v.1.15,2013-03-03 20:33:00,
2013-03-03 15:34:00,32.9,26.8,29.65,East,82,1.0,5.0,78,0.00,,,0.00,Wunderground v.1.15,2013-03-03 20:34:00,
2013-03-03 15:38:00,32.7,26.9,29.65,SSW,201,1.0,5.0,79,0.00,,,0.00,Wunderground v.1.15,2013-03-03 20:38:00,
2013-03-03 15:40:00,32.6,27.1,29.65,ESE,108,1.0,5.0,80,0.00,,,0.00,Wunderground v.1.15,2013-03-03 20:40:00,
2013-03-03 15:43:00,32.4,26.9,29.65,NE,46,1.0,4.0,80,0.00,,,0.00,Wunderground v.1.15,2013-03-03 20:43:00,
2013-03-03 15:45:00,32.4,26.6,29.65,East,101,1.0,4.0,79,0.00,,,0.00,Wunderground v.1.15,2013-03-03 20:45:00,
2013-03-03 15:48:00,32.3,26.8,29.65,South,183,1.0,4.0,80,0.00,,,0.00,Wunderground v.1.15,2013-03-03 20:48:00,
2013-03-03 15:50:00,32.3,27.1,29.65,ESE,105,0.0,1.0,81,0.00,,,0.00,Wunderground v.1.15,2013-03-03 20:50:00,
2013-03-03 15:53:00,32.4,27.2,29.65,East,96,1.0,3.0,81,0.00,,,0.00,Wunderground v.1.15,2013-03-03 20:53:00,
2013-03-03 15:54:00,32.4,27.2,29.65,SW,228,1.0,3.0,81,0.00,,,0.00,Wunderground v.1.15,2013-03-03 20:54:00,
2013-03-03 15:55:00,32.3,27.1,29.65,East,91,2.0,4.0,81,0.00,,,0.00,Wunderground v.1.15,2013-03-03 20:55:00,
2013-03-03 15:58:00,32.0,26.8,29.65,ESE,105,1.0,7.0,81,0.00,,,0.00,Wunderground v.1.15,2013-03-03 20:58:00,
2013-03-03 15:59:00,32.0,26.8,29.65,ESE,106,0.0,7.0,81,0.00,,,0.00,Wunderground v.1.15,2013-03-03 20:59:00,
2013-03-03 16:02:00,31.9,26.7,29.66,East,98,2.0,2.0,81,0.00,,,0.00,Wunderground v.1.15,2013-03-03 21:02:00,
2013-03-03 16:04:00,31.9,27.0,29.66,ESE,106,1.0,2.0,82,0.00,,,0.00,Wunderground v.1.15,2013-03-03 21:04:00,
2013-03-03 16:07:00,31.9,26.7,29.66,South,169,0.0,2.0,81,0.00,,,0.00,Wunderground v.1.15,2013-03-03 21:07:00,
2013-03-03 16:09:00,31.9,27.0,29.66,East,90,2.0,2.0,82,0.00,,,0.00,Wunderground v.1.15,2013-03-03 21:09:00,
2013-03-03 16:12:00,31.8,26.9,29.66,SE,130,1.0,4.0,82,0.00,,,0.00,Wunderground v.1.15,2013-03-03 21:12:00,
2013-03-03 16:14:00,31.8,26.9,29.65,South,172,0.0,4.0,82,0.00,,,0.00,Wunderground v.1.15,2013-03-03 21:14:00,
2013-03-03 16:17:00,31.8,26.9,29.66,SE,134,0.0,4.0,82,0.00,,,0.00,Wunderground v.1.15,2013-03-03 21:17:00,
2013-03-03 16:19:00,31.8,26.9,29.66,East,82,1.0,4.0,82,0.00,,,0.00,Wunderground v.1.15,2013-03-03 21:19:00,
2013-03-03 16:22:00,31.8,27.2,29.66,ESE,116,0.0,2.0,83,0.00,,,0.00,Wunderground v.1.15,2013-03-03 21:22:00,
2013-03-03 16:24:00,31.7,27.1,29.66,NE,43,3.0,5.0,83,0.00,,,0.00,Wunderground v.1.15,2013-03-03 21:24:00,
2013-03-03 16:28:00,31.7,27.1,29.66,SSW,207,1.0,5.0,83,0.00,,,0.00,Wunderground v.1.15,2013-03-03 21:28:00,
2013-03-03 16:29:00,31.7,27.1,29.66,South,186,0.0,5.0,83,0.00,,,0.00,Wunderground v.1.15,2013-03-03 21:29:00,
2013-03-03 16:30:00,31.7,27.1,29.66,South,186,0.0,5.0,83,0.00,,,0.00,Wunderground v.1.15,2013-03-03 21:30:00,
2013-03-03 16:33:00,31.8,27.2,29.66,SW,226,2.0,2.0,83,0.00,,,0.00,Wunderground v.1.15,2013-03-03 21:33:00,
2013-03-03 16:34:00,31.8,27.2,29.66,WSW,246,0.0,2.0,83,0.00,,,0.00,Wunderground v.1.15,2013-03-03 21:34:00,
2013-03-03 16:35:00,31.8,27.2,29.66,WSW,246,0.0,2.0,83,0.00,,,0.00,Wunderground v.1.15,2013-03-03 21:35:00,
2013-03-03 16:39:00,31.8,27.2,29.66,SE,134,0.0,3.0,83,0.00,,,0.00,Wunderground v.1.15,2013-03-03 21:39:00,
2013-03-03 16:40:00,31.7,27.1,29.66,NE,46,1.0,1.0,83,0.00,,,0.00,Wunderground v.1.15,2013-03-03 21:40:00,
2013-03-03 16:44:00,31.6,27.0,29.66,WSW,252,0.0,3.0,83,0.00,,,0.00,Wunderground v.1.15,2013-03-03 21:44:00,
2013-03-03 16:45:00,31.6,27.0,29.66,WNW,288,1.0,3.0,83,0.00,,,0.00,Wunderground v.1.15,2013-03-03 21:45:00,
2013-03-03 16:49:00,31.3,26.7,29.66,West,269,0.0,3.0,83,0.00,,,0.00,Wunderground v.1.15,2013-03-03 21:49:00,
2013-03-03 16:50:00,31.2,26.6,29.66,WSW,257,0.0,1.0,83,0.00,,,0.00,Wunderground v.1.15,2013-03-03 21:50:00,
2013-03-03 16:54:00,31.1,26.5,29.66,West,259,1.0,1.0,83,0.00,,,0.00,Wunderground v.1.15,2013-03-03 21:54:00,
2013-03-03 16:55:00,31.0,26.4,29.66,West,264,1.0,1.0,83,0.00,,,0.00,Wunderground v.1.15,2013-03-03 21:55:00,
2013-03-03 16:59:00,30.7,26.4,29.66,West,264,0.0,2.0,84,0.00,,,0.00,Wunderground v.1.15,2013-03-03 21:59:00,
2013-03-03 17:00:00,30.7,26.4,29.66,West,264,0.0,1.0,84,0.00,,,0.00,Wunderground v.1.15,2013-03-03 22:00:00,
2013-03-03 17:02:00,30.6,26.3,29.66,SW,225,0.0,1.0,84,0.00,,,0.00,Wunderground v.1.15,2013-03-03 22:02:00,
2013-03-03 17:04:00,30.4,26.1,29.66,SSW,211,0.0,1.0,84,0.00,,,0.00,Wunderground v.1.15,2013-03-03 22:04:00,
2013-03-03 17:05:00,30.4,26.1,29.66,SSW,211,0.0,1.0,84,0.00,,,0.00,Wunderground v.1.15,2013-03-03 22:05:00,
2013-03-03 17:07:00,30.3,26.0,29.66,SSE,153,0.0,1.0,84,0.00,,,0.00,Wunderground v.1.15,2013-03-03 22:07:00,
2013-03-03 17:10:00,30.2,25.9,29.66,SSW,203,1.0,2.0,84,0.00,,,0.00,Wunderground v.1.15,2013-03-03 22:10:00,
2013-03-03 17:12:00,30.1,25.8,29.66,WSW,257,0.0,2.0,84,0.00,,,0.00,Wunderground v.1.15,2013-03-03 22:12:00,
2013-03-03 17:15:00,30.0,25.8,29.66,SE,130,0.0,2.0,84,0.00,,,0.00,Wunderground v.1.15,2013-03-03 22:15:00,
2013-03-03 17:16:00,29.9,25.9,29.66,SE,129,0.0,2.0,85,0.00,,,0.00,Wunderground v.1.15,2013-03-03 22:16:00,
2013-03-03 17:17:00,29.9,25.9,29.66,SE,129,1.0,2.0,85,0.00,,,0.00,Wunderground v.1.15,2013-03-03 22:17:00,
2013-03-03 17:20:00,29.8,25.6,29.66,ENE,68,2.0,2.0,84,0.00,,,0.00,Wunderground v.1.15,2013-03-03 22:20:00,
2013-03-03 17:21:00,29.8,25.6,29.66,ESE,118,1.0,3.0,84,0.00,,,0.00,Wunderground v.1.15,2013-03-03 22:21:00,
2013-03-03 17:22:00,29.7,25.5,29.66,ESE,118,0.0,3.0,84,0.00,,,0.00,Wunderground v.1.15,2013-03-03 22:22:00,
2013-03-03 17:25:00,29.7,25.5,29.66,East,98,3.0,3.0,84,0.00,,,0.00,Wunderground v.1.15,2013-03-03 22:25:00,
2013-03-03 17:26:00,29.7,25.5,29.66,East,89,1.0,4.0,84,0.00,,,0.00,Wunderground v.1.15,2013-03-03 22:26:00,
2013-03-03 17:27:00,29.6,25.4,29.66,SSE,150,1.0,4.0,84,0.00,,,0.00,Wunderground v.1.15,2013-03-03 22:27:00,
2013-03-03 17:30:00,29.6,25.6,29.66,SSE,151,0.0,1.0,85,0.00,,,0.00,Wunderground v.1.15,2013-03-03 22:30:00,
2013-03-03 17:31:00,29.6,25.6,29.66,SSW,211,1.0,1.0,85,0.00,,,0.00,Wunderground v.1.15,2013-03-03 22:31:00,
2013-03-03 17:32:00,29.6,25.4,29.66,SW,224,1.0,1.0,84,0.00,,,0.00,Wunderground v.1.15,2013-03-03 22:32:00,
2013-03-03 17:35:00,29.5,25.5,29.67,SW,214,1.0,2.0,85,0.00,,,0.00,Wunderground v.1.15,2013-03-03 22:35:00,
2013-03-03 17:36:00,29.5,25.5,29.66,SE,127,1.0,2.0,85,0.00,,,0.00,Wunderground v.1.15,2013-03-03 22:36:00,
2013-03-03 17:37:00,29.4,25.4,29.67,ENE,76,1.0,2.0,85,0.00,,,0.00,Wunderground v.1.15,2013-03-03 22:37:00,
2013-03-03 17:40:00,29.5,25.5,29.67,ENE,76,0.0,1.0,85,0.00,,,0.00,Wunderground v.1.15,2013-03-03 22:40:00,
2013-03-03 17:41:00,29.4,25.7,29.67,ENE,77,1.0,1.0,86,0.00,,,0.00,Wunderground v.1.15,2013-03-03 22:41:00,
2013-03-03 17:42:00,29.5,25.8,29.67,ENE,77,1.0,1.0,86,0.00,,,0.00,Wunderground v.1.15,2013-03-03 22:42:00,
2013-03-03 17:45:00,29.4,25.4,29.67,East,85,0.0,2.0,85,0.00,,,0.00,Wunderground v.1.15,2013-03-03 22:45:00,
2013-03-03 17:46:00,29.4,25.4,29.67,East,85,0.0,2.0,85,0.00,,,0.00,Wunderground v.1.15,2013-03-03 22:46:00,
2013-03-03 17:47:00,29.4,25.4,29.67,East,85,0.0,2.0,85,0.00,,,0.00,Wunderground v.1.15,2013-03-03 22:47:00,
2013-03-03 17:50:00,29.4,25.4,29.67,East,85,0.0,1.0,85,0.00,,,0.00,Wunderground v.1.15,2013-03-03 22:50:00,
2013-03-03 17:51:00,29.4,25.7,29.67,SE,144,1.0,1.0,86,0.00,,,0.00,Wunderground v.1.15,2013-03-03 22:51:00,
2013-03-03 17:53:00,29.4,25.7,29.67,East,92,1.0,1.0,86,0.00,,,0.00,Wunderground v.1.15,2013-03-03 22:53:00,
2013-03-03 17:55:00,29.4,25.4,29.67,SW,231,1.0,2.0,85,0.00,,,0.00,Wunderground v.1.15,2013-03-03 22:55:00,
2013-03-03 17:57:00,29.3,25.4,29.67,SSW,210,1.0,2.0,85,0.00,,,0.00,Wunderground v.1.15,2013-03-03 22:57:00,
2013-03-03 17:58:00,29.3,25.1,29.67,SSW,210,0.0,2.0,84,0.00,,,0.00,Wunderground v.1.15,2013-03-03 22:58:00,
2013-03-03 18:01:00,29.4,25.2,29.67,East,94,0.0,0.0,84,0.00,,,0.00,Wunderground v.1.15,2013-03-03 23:01:00,
2013-03-03 18:02:00,29.3,25.4,29.67,East,79,1.0,2.0,85,0.00,,,0.00,Wunderground v.1.15,2013-03-03 23:02:00,
2013-03-03 18:03:00,29.3,25.4,29.67,East,84,1.0,2.0,85,0.00,,,0.00,Wunderground v.1.15,2013-03-03 23:03:00,
2013-03-03 18:07:00,29.3,25.4,29.67,East,90,0.0,3.0,85,0.00,,,0.00,Wunderground v.1.15,2013-03-03 23:07:00,
2013-03-03 18:08:00,29.3,25.4,29.67,East,86,1.0,3.0,85,0.00,,,0.00,Wunderground v.1.15,2013-03-03 23:08:00,
2013-03-03 18:09:00,29.3,25.4,29.68,East,86,1.0,3.0,85,0.00,,,0.00,Wunderground v.1.15,2013-03-03 23:09:00,
2013-03-03 18:12:00,29.3,25.4,29.68,East,86,0.0,1.0,85,0.00,,,0.00,Wunderground v.1.15,2013-03-03 23:12:00,
2013-03-03 18:13:00,29.3,25.6,29.68,East,86,0.0,1.0,86,0.00,,,0.00,Wunderground v.1.15,2013-03-03 23:13:00,
2013-03-03 18:14:00,29.3,25.4,29.68,East,86,0.0,1.0,85,0.00,,,0.00,Wunderground v.1.15,2013-03-03 23:14:00,
2013-03-03 18:16:00,29.3,25.6,29.68,South,177,0.0,2.0,86,0.00,,,0.00,Wunderground v.1.15,2013-03-03 23:16:00,
2013-03-03 18:17:00,29.2,25.3,29.68,South,177,0.0,2.0,85,0.00,,,0.00,Wunderground v.1.15,2013-03-03 23:17:00,
2013-03-03 18:18:00,29.2,25.3,29.68,ESE,116,0.0,2.0,85,0.00,,,0.00,Wunderground v.1.15,2013-03-03 23:18:00,
2013-03-03 18:19:00,29.2,25.5,29.68,ESE,116,0.0,2.0,86,0.00,,,0.00,Wunderground v.1.15,2013-03-03 23:19:00,
2013-03-03 18:22:00,29.2,25.3,29.68,SW,221,0.0,2.0,85,0.00,,,0.00,Wunderground v.1.15,2013-03-03 23:22:00,
2013-03-03 18:24:00,29.1,25.4,29.68,SE,133,0.0,2.0,86,0.00,,,0.00,Wunderground v.1.15,2013-03-03 23:24:00,
2013-03-03 18:27:00,29.1,25.4,29.68,ESE,110,1.0,2.0,86,0.00,,,0.00,Wunderground v.1.15,2013-03-03 23:27:00,
2013-03-03 18:29:00,29.1,25.4,29.68,ESE,121,0.0,2.0,86,0.00,,,0.00,Wunderground v.1.15,2013-03-03 23:29:00,
2013-03-03 18:32:00,29.0,25.3,29.68,East,80,0.0,2.0,86,0.00,,,0.00,Wunderground v.1.15,2013-03-03 23:32:00,
2013-03-03 18:33:00,29.0,25.3,29.68,East,81,0.0,2.0,86,0.00,,,0.00,Wunderground v.1.15,2013-03-03 23:33:00,
2013-03-03 18:34:00,29.0,25.3,29.68,East,84,0.0,2.0,86,0.00,,,0.00,Wunderground v.1.15,2013-03-03 23:34:00,
2013-03-03 18:38:00,29.0,25.3,29.68,SSW,195,0.0,3.0,86,0.00,,,0.00,Wunderground v.1.15,2013-03-03 23:38:00,
2013-03-03 18:39:00,28.9,25.2,29.68,East,89,1.0,3.0,86,0.00,,,0.00,Wunderground v.1.15,2013-03-03 23:39:00,
2013-03-03 18:43:00,28.9,25.2,29.68,North,349,0.0,1.0,86,0.00,,,0.00,Wunderground v.1.15,2013-03-03 23:43:00,
2013-03-03 18:44:00,28.9,25.5,29.68,NNW,347,0.0,1.0,87,0.00,,,0.00,Wunderground v.1.15,2013-03-03 23:44:00,
2013-03-03 18:48:00,28.9,25.5,29.68,ESE,106,0.0,2.0,87,0.00,,,0.00,Wunderground v.1.15,2013-03-03 23:48:00,
2013-03-03 18:49:00,28.9,25.5,29.68,ESE,105,0.0,2.0,87,0.00,,,0.00,Wunderground v.1.15,2013-03-03 23:49:00,
2013-03-03 18:50:00,28.9,25.5,29.68,SSE,166,0.0,2.0,87,0.00,,,0.00,Wunderground v.1.15,2013-03-03 23:50:00,
2013-03-03 18:53:00,28.8,25.4,29.68,South,187,0.0,2.0,87,0.00,,,0.00,Wunderground v.1.15,2013-03-03 23:53:00,
2013-03-03 18:54:00,28.9,25.5,29.68,South,187,0.0,2.0,87,0.00,,,0.00,Wunderground v.1.15,2013-03-03 23:54:00,
2013-03-03 18:55:00,28.8,25.4,29.68,South,187,0.0,2.0,87,0.00,,,0.00,Wunderground v.1.15,2013-03-03 23:55:00,
2013-03-03 18:58:00,28.8,25.7,29.69,WSW,242,0.0,2.0,88,0.00,,,0.00,Wunderground v.1.15,2013-03-03 23:58:00,
2013-03-03 18:59:00,28.8,25.7,29.69,ESE,112,0.0,3.0,88,0.00,,,0.00,Wunderground v.1.15,2013-03-03 23:59:00,
2013-03-03 19:00:00,28.8,25.7,29.69,SE,136,0.0,0.0,88,0.00,,,0.00,Wunderground v.1.15,2013-03-04 00:00:00,
2013-03-03 19:04:00,28.8,25.7,29.69,SSE,162,2.0,3.0,88,0.00,,,0.00,Wunderground v.1.15,2013-03-04 00:04:00,
2013-03-03 19:05:00,28.8,25.7,29.69,SSE,164,0.0,3.0,88,0.00,,,0.00,Wunderground v.1.15,2013-03-04 00:05:00,
2013-03-03 19:09:00,28.7,25.3,29.69,South,186,0.0,5.0,87,0.00,,,0.00,Wunderground v.1.15,2013-03-04 00:09:00,
2013-03-03 19:10:00,28.7,25.6,29.69,ESE,108,3.0,3.0,88,0.00,,,0.00,Wunderground v.1.15,2013-03-04 00:10:00,
2013-03-03 19:14:00,28.6,25.5,29.69,SW,217,1.0,4.0,88,0.00,,,0.00,Wunderground v.1.15,2013-03-04 00:14:00,
2013-03-03 19:15:00,28.6,25.5,29.69,SW,218,0.0,4.0,88,0.00,,,0.00,Wunderground v.1.15,2013-03-04 00:15:00,
2013-03-03 19:19:00,28.6,25.5,29.69,East,88,0.0,4.0,88,0.00,,,0.00,Wunderground v.1.15,2013-03-04 00:19:00,
2013-03-03 19:20:00,28.6,25.5,29.69,East,88,0.0,0.0,88,0.00,,,0.00,Wunderground v.1.15,2013-03-04 00:20:00,
2013-03-03 19:21:00,28.6,25.5,29.69,East,85,0.0,1.0,88,0.00,,,0.00,Wunderground v.1.15,2013-03-04 00:21:00,
2013-03-03 19:24:00,28.6,25.5,29.69,East,79,0.0,5.0,88,0.00,,,0.00,Wunderground v.1.15,2013-03-04 00:24:00,
2013-03-03 19:25:00,28.6,25.5,29.69,East,79,0.0,5.0,88,0.00,,,0.00,Wunderground v.1.15,2013-03-04 00:25:00,
2013-03-03 19:26:00,28.6,25.5,29.69,East,86,3.0,5.0,88,0.00,,,0.00,Wunderground v.1.15,2013-03-04 00:26:00,
2013-03-03 19:29:00,28.5,25.4,29.69,SSE,167,0.0,5.0,88,0.00,,,0.00,Wunderground v.1.15,2013-03-04 00:29:00,
2013-03-03 19:30:00,28.5,25.4,29.69,SSE,166,1.0,5.0,88,0.00,,,0.00,Wunderground v.1.15,2013-03-04 00:30:00,
2013-03-03 19:31:00,28.5,25.4,29.69,SW,221,1.0,2.0,88,0.00,,,0.00,Wunderground v.1.15,2013-03-04 00:31:00,
2013-03-03 19:34:00,28.5,25.4,29.69,ESE,103,1.0,2.0,88,0.00,,,0.00,Wunderground v.1.15,2013-03-04 00:34:00,
2013-03-03 19:35:00,28.5,25.4,29.69,SW,221,1.0,2.0,88,0.00,,,0.00,Wunderground v.1.15,2013-03-04 00:35:00,
2013-03-03 19:36:00,28.4,25.3,29.69,SE,129,0.0,2.0,88,0.00,,,0.00,Wunderground v.1.15,2013-03-04 00:36:00,
2013-03-03 19:39:00,28.3,25.2,29.69,SSW,208,0.0,2.0,88,0.00,,,0.00,Wunderground v.1.15,2013-03-04 00:39:00,
2013-03-03 19:40:00,28.3,25.2,29.69,South,169,0.0,1.0,88,0.00,,,0.00,Wunderground v.1.15,2013-03-04 00:40:00,
2013-03-03 19:42:00,28.3,25.2,29.69,ESE,117,0.0,1.0,88,0.00,,,0.00,Wunderground v.1.15,2013-03-04 00:42:00,
2013-03-03 19:44:00,28.3,25.2,29.69,SW,214,1.0,1.0,88,0.00,,,0.00,Wunderground v.1.15,2013-03-04 00:44:00,
2013-03-03 19:46:00,28.2,25.1,29.69,SW,235,1.0,3.0,88,0.00,,,0.00,Wunderground v.1.15,2013-03-04 00:46:00,
2013-03-03 19:47:00,28.2,25.1,29.69,ESE,102,0.0,3.0,88,0.00,,,0.00,Wunderground v.1.15,2013-03-04 00:47:00,
2013-03-03 19:49:00,28.2,25.1,29.69,SE,131,1.0,3.0,88,0.00,,,0.00,Wunderground v.1.15,2013-03-04 00:49:00,
2013-03-03 19:51:00,28.2,25.4,29.69,SE,139,0.0,1.0,89,0.00,,,0.00,Wunderground v.1.15,2013-03-04 00:51:00,
2013-03-03 19:52:00,28.2,25.4,29.69,SW,224,1.0,2.0,89,0.00,,,0.00,Wunderground v.1.15,2013-03-04 00:52:00,
2013-03-03 19:54:00,28.1,25.0,29.69,WSW,239,0.0,4.0,88,0.00,,,0.00,Wunderground v.1.15,2013-03-04 00:54:00,
2013-03-03 19:56:00,28.1,25.0,29.69,SSW,207,0.0,4.0,88,0.00,,,0.00,Wunderground v.1.15,2013-03-04 00:56:00,
2013-03-03 19:57:00,28.1,25.0,29.69,SSW,207,0.0,4.0,88,0.00,,,0.00,Wunderground v.1.15,2013-03-04 00:57:00,
2013-03-03 19:59:00,28.1,25.0,29.69,East,101,1.0,4.0,88,0.00,,,0.00,Wunderground v.1.15,2013-03-04 00:59:00,
2013-03-03 20:02:00,28.0,24.9,29.69,SW,222,0.0,3.0,88,0.00,,,0.00,Wunderground v.1.15,2013-03-04 01:02:00,
2013-03-03 20:04:00,28.0,25.2,29.69,South,184,0.0,3.0,89,0.00,,,0.00,Wunderground v.1.15,2013-03-04 01:04:00,
2013-03-03 20:07:00,28.0,24.9,29.69,East,98,0.0,4.0,88,0.00,,,0.00,Wunderground v.1.15,2013-03-04 01:07:00,
2013-03-03 20:09:00,28.0,24.9,29.70,ESE,115,1.0,4.0,88,0.00,,,0.00,Wunderground v.1.15,2013-03-04 01:09:00,
2013-03-03 20:12:00,28.0,24.9,29.70,ESE,117,0.0,2.0,88,0.00,,,0.00,Wunderground v.1.15,2013-03-04 01:12:00,
2013-03-03 20:14:00,28.0,24.9,29.70,East,94,1.0,2.0,88,0.00,,,0.00,Wunderground v.1.15,2013-03-04 01:14:00,
2013-03-03 20:17:00,28.0,24.9,29.70,East,96,0.0,2.0,88,0.00,,,0.00,Wunderground v.1.15,2013-03-04 01:17:00,
2013-03-03 20:18:00,28.0,24.9,29.70,ESE,116,1.0,2.0,88,0.00,,,0.00,Wunderground v.1.15,2013-03-04 01:18:00,
2013-03-03 20:20:00,28.0,24.9,29.70,East,86,2.0,2.0,88,0.00,,,0.00,Wunderground v.1.15,2013-03-04 01:20:00,
2013-03-03 20:22:00,28.0,24.9,29.70,SE,131,0.0,2.0,88,0.00,,,0.00,Wunderground v.1.15,2013-03-04 01:22:00,
2013-03-03 20:23:00,27.9,24.8,29.70,SE,131,0.0,2.0,88,0.00,,,0.00,Wunderground v.1.15,2013-03-04 01:23:00,
2013-03-03 20:25:00,27.9,24.8,29.70,SE,129,1.0,2.0,88,0.00,,,0.00,Wunderground v.1.15,2013-03-04 01:25:00,
2013-03-03 20:27:00,27.9,24.8,29.70,East,89,0.0,2.0,88,0.00,,,0.00,Wunderground v.1.15,2013-03-04 01:27:00,
2013-03-03 20:28:00,27.9,24.8,29.70,East,87,2.0,2.0,88,0.00,,,0.00,Wunderground v.1.15,2013-03-04 01:28:00,
2013-03-03 20:30:00,27.9,24.8,29.70,East,88,0.0,0.0,88,0.00,,,0.00,Wunderground v.1.15,2013-03-04 01:30:00,
2013-03-03 20:32:00,27.9,25.1,29.70,East,89,0.0,1.0,89,0.00,,,0.00,Wunderground v.1.15,2013-03-04 01:32:00,
2013-03-03 20:33:00,27.9,25.1,29.70,South,175,0.0,1.0,89,0.00,,,0.00,Wunderground v.1.15,2013-03-04 01:33:00,
2013-03-03 20:36:00,27.9,24.8,29.70,South,174,0.0,1.0,88,0.00,,,0.00,Wunderground v.1.15,2013-03-04 01:36:00,
2013-03-03 20:37:00,27.9,24.8,29.70,South,174,0.0,1.0,88,0.00,,,0.00,Wunderground v.1.15,2013-03-04 01:37:00,
2013-03-03 20:38:00,27.9,24.8,29.70,South,174,0.0,1.0,88,0.00,,,0.00,Wunderground v.1.15,2013-03-04 01:38:00,
2013-03-03 20:39:00,27.9,24.8,29.70,SSW,210,1.0,2.0,88,0.00,,,0.00,Wunderground v.1.15,2013-03-04 01:39:00,
2013-03-03 20:41:00,27.9,24.8,29.70,ESE,116,0.0,0.0,88,0.00,,,0.00,Wunderground v.1.15,2013-03-04 01:41:00,
2013-03-03 20:42:00,27.9,24.8,29.70,ESE,116,0.0,0.0,88,0.00,,,0.00,Wunderground v.1.15,2013-03-04 01:42:00,
2013-03-03 20:43:00,27.9,24.8,29.70,ESE,116,0.0,1.0,88,0.00,,,0.00,Wunderground v.1.15,2013-03-04 01:43:00,
2013-03-03 20:44:00,27.9,24.8,29.70,ESE,115,0.0,1.0,88,0.00,,,0.00,Wunderground v.1.15,2013-03-04 01:44:00,
2013-03-03 20:46:00,27.8,24.7,29.70,ESE,115,0.0,1.0,88,0.00,,,0.00,Wunderground v.1.15,2013-03-04 01:46:00,
2013-03-03 20:48:00,27.8,24.7,29.70,ESE,119,1.0,1.0,88,0.00,,,0.00,Wunderground v.1.15,2013-03-04 01:48:00,
2013-03-03 20:49:00,27.8,24.7,29.70,East,101,0.0,2.0,88,0.00,,,0.00,Wunderground v.1.15,2013-03-04 01:49:00,
2013-03-03 20:51:00,27.8,24.7,29.70,SSW,211,0.0,1.0,88,0.00,,,0.00,Wunderground v.1.15,2013-03-04 01:51:00,
2013-03-03 20:53:00,27.8,24.7,29.70,South,187,0.0,1.0,88,0.00,,,0.00,Wunderground v.1.15,2013-03-04 01:53:00,
2013-03-03 20:54:00,27.8,24.4,29.70,South,187,0.0,1.0,87,0.00,,,0.00,Wunderground v.1.15,2013-03-04 01:54:00,
2013-03-03 20:56:00,27.8,24.7,29.70,SE,138,1.0,1.0,88,0.00,,,0.00,Wunderground v.1.15,2013-03-04 01:56:00,
2013-03-03 20:58:00,27.7,24.6,29.70,SE,127,1.0,1.0,88,0.00,,,0.00,Wunderground v.1.15,2013-03-04 01:58:00,
2013-03-03 20:59:00,27.7,24.6,29.70,SE,127,0.0,1.0,88,0.00,,,0.00,Wunderground v.1.15,2013-03-04 01:59:00,
2013-03-03 21:00:00,27.7,24.6,29.70,East,79,2.0,2.0,88,0.00,,,0.00,Wunderground v.1.15,2013-03-04 02:00:00,
2013-03-03 21:02:00,27.7,24.6,29.70,East,88,1.0,2.0,88,0.00,,,0.00,Wunderground v.1.15,2013-03-04 02:02:00,
2013-03-03 21:03:00,27.7,24.3,29.70,East,88,0.0,2.0,87,0.00,,,0.00,Wunderground v.1.15,2013-03-04 02:03:00,
2013-03-03 21:04:00,27.7,24.3,29.70,East,88,0.0,2.0,87,0.00,,,0.00,Wunderground v.1.15,2013-03-04 02:04:00,
2013-03-03 21:05:00,27.6,24.2,29.70,East,87,0.0,2.0,87,0.00,,,0.00,Wunderground v.1.15,2013-03-04 02:05:00,
2013-03-03 21:07:00,27.6,24.2,29.70,SW,217,1.0,2.0,87,0.00,,,0.00,Wunderground v.1.15,2013-03-04 02:07:00,
2013-03-03 21:08:00,27.6,24.2,29.70,South,177,0.0,2.0,87,0.00,,,0.00,Wunderground v.1.15,2013-03-04 02:08:00,
2013-03-03 21:09:00,27.6,24.2,29.70,ESE,105,1.0,2.0,87,0.00,,,0.00,Wunderground v.1.15,2013-03-04 02:09:00,
2013-03-03 21:10:00,27.6,24.2,29.70,SE,124,0.0,1.0,87,0.00,,,0.00,Wunderground v.1.15,2013-03-04 02:10:00,
2013-03-03 21:12:00,27.5,24.1,29.70,East,98,1.0,2.0,87,0.00,,,0.00,Wunderground v.1.15,2013-03-04 02:12:00,
2013-03-03 21:14:00,27.5,24.1,29.70,East,98,0.0,2.0,87,0.00,,,0.00,Wunderground v.1.15,2013-03-04 02:14:00,
2013-03-03 21:15:00,27.5,24.1,29.70,SSE,150,0.0,2.0,87,0.00,,,0.00,Wunderground v.1.15,2013-03-04 02:15:00,
2013-03-03 21:18:00,27.5,24.1,29.70,SW,224,1.0,2.0,87,0.00,,,0.00,Wunderground v.1.15,2013-03-04 02:18:00,
2013-03-03 21:19:00,27.4,24.0,29.70,East,101,2.0,2.0,87,0.00,,,0.00,Wunderground v.1.15,2013-03-04 02:19:00,
2013-03-03 21:21:00,27.4,24.0,29.70,South,181,1.0,2.0,87,0.00,,,0.00,Wunderground v.1.15,2013-03-04 02:21:00,
2013-03-03 21:23:00,27.4,23.8,29.70,WSW,246,1.0,3.0,86,0.00,,,0.00,Wunderground v.1.15,2013-03-04 02:23:00,
2013-03-03 21:24:00,27.3,23.7,29.70,WSW,245,0.0,3.0,86,0.00,,,0.00,Wunderground v.1.15,2013-03-04 02:24:00,
2013-03-03 21:26:00,27.3,23.7,29.70,WSW,246,0.0,3.0,86,0.00,,,0.00,Wunderground v.1.15,2013-03-04 02:26:00,
2013-03-03 21:28:00,27.3,23.9,29.70,WSW,243,0.0,3.0,87,0.00,,,0.00,Wunderground v.1.15,2013-03-04 02:28:00,
2013-03-03 21:29:00,27.3,23.9,29.70,WSW,243,0.0,3.0,87,0.00,,,0.00,Wunderground v.1.15,2013-03-04 02:29:00,
2013-03-03 21:31:00,27.3,23.9,29.70,South,179,2.0,3.0,87,0.00,,,0.00,Wunderground v.1.15,2013-03-04 02:31:00,
2013-03-03 21:33:00,27.2,23.8,29.70,SSE,154,2.0,3.0,87,0.00,,,0.00,Wunderground v.1.15,2013-03-04 02:33:00,
2013-03-03 21:34:00,27.2,23.8,29.70,SSE,160,1.0,3.0,87,0.00,,,0.00,Wunderground v.1.15,2013-03-04 02:34:00,
2013-03-03 21:36:00,27.2,23.8,29.70,SW,225,1.0,3.0,87,0.00,,,0.00,Wunderground v.1.15,2013-03-04 02:36:00,
2013-03-03 21:39:00,27.1,23.7,29.70,NE,44,1.0,3.0,87,0.00,,,0.00,Wunderground v.1.15,2013-03-04 02:39:00,
2013-03-03 21:40:00,27.2,23.8,29.70,SSW,210,1.0,3.0,87,0.00,,,0.00,Wunderground v.1.15,2013-03-04 02:40:00,
2013-03-03 21:41:00,27.1,23.7,29.70,SSW,203,0.0,1.0,87,0.00,,,0.00,Wunderground v.1.15,2013-03-04 02:41:00,
2013-03-03 21:44:00,27.1,23.7,29.70,East,85,0.0,4.0,87,0.00,,,0.00,Wunderground v.1.15,2013-03-04 02:44:00,
2013-03-03 21:45:00,27.1,24.0,29.70,ESE,112,2.0,4.0,88,0.00,,,0.00,Wunderground v.1.15,2013-03-04 02:45:00,
2013-03-03 21:46:00,27.1,24.0,29.70,SW,235,1.0,4.0,88,0.00,,,0.00,Wunderground v.1.15,2013-03-04 02:46:00,
2013-03-03 21:49:00,27.1,23.7,29.70,East,79,1.0,4.0,87,0.00,,,0.00,Wunderground v.1.15,2013-03-04 02:49:00,
2013-03-03 21:50:00,27.1,23.7,29.70,SE,135,0.0,1.0,87,0.00,,,0.00,Wunderground v.1.15,2013-03-04 02:50:00,
2013-03-03 21:51:00,27.1,24.0,29.69,SE,144,0.0,1.0,88,0.00,,,0.00,Wunderground v.1.15,2013-03-04 02:51:00,
2013-03-03 21:54:00,27.0,23.9,29.69,ESE,120,4.0,4.0,88,0.00,,,0.00,Wunderground v.1.15,2013-03-04 02:54:00,
2013-03-03 21:55:00,27.0,23.9,29.69,NE,46,0.0,5.0,88,0.00,,,0.00,Wunderground v.1.15,2013-03-04 02:55:00,
2013-03-03 21:56:00,27.0,23.6,29.69,WNW,293,1.0,5.0,87,0.00,,,0.00,Wunderground v.1.15,2013-03-04 02:56:00,
2013-03-03 21:59:00,27.0,23.6,29.69,SW,229,1.0,5.0,87,0.00,,,0.00,Wunderground v.1.15,2013-03-04 02:59:00,
2013-03-03 22:00:00,26.9,23.5,29.69,WSW,257,0.0,1.0,87,0.00,,,0.00,Wunderground v.1.15,2013-03-04 03:00:00,
2013-03-03 22:02:00,26.9,23.5,29.69,SE,125,0.0,1.0,87,0.00,,,0.00,Wunderground v.1.15,2013-03-04 03:02:00,
2013-03-03 22:04:00,26.9,23.5,29.69,ESE,114,3.0,3.0,87,0.00,,,0.00,Wunderground v.1.15,2013-03-04 03:04:00,
2013-03-03 22:05:00,26.9,23.5,29.69,ENE,72,2.0,3.0,87,0.00,,,0.00,Wunderground v.1.15,2013-03-04 03:05:00,
2013-03-03 22:07:00,26.8,23.7,29.69,ENE,72,0.0,3.0,88,0.00,,,0.00,Wunderground v.1.15,2013-03-04 03:07:00,
2013-03-03 22:09:00,26.8,23.7,29.69,East,98,1.0,3.0,88,0.00,,,0.00,Wunderground v.1.15,2013-03-04 03:09:00,
2013-03-03 22:10:00,26.8,23.7,29.69,South,191,0.0,1.0,88,0.00,,,0.00,Wunderground v.1.15,2013-03-04 03:10:00,
2013-03-03 22:13:00,26.8,23.7,29.69,East,94,0.0,2.0,88,0.00,,,0.00,Wunderground v.1.15,2013-03-04 03:13:00,
2013-03-03 22:15:00,26.7,23.6,29.69,ESE,108,0.0,3.0,88,0.00,,,0.00,Wunderground v.1.15,2013-03-04 03:15:00,
2013-03-03 22:18:00,26.7,23.6,29.69,WSW,250,0.0,3.0,88,0.00,,,0.00,Wunderground v.1.15,2013-03-04 03:18:00,
2013-03-03 22:20:00,26.7,23.6,29.69,SW,222,0.0,0.0,88,0.00,,,0.00,Wunderground v.1.15,2013-03-04 03:20:00,
2013-03-03 22:21:00,26.7,23.6,29.69,WSW,239,0.0,1.0,88,0.00,,,0.00,Wunderground v.1.15,2013-03-04 03:21:00,
2013-03-03 22:23:00,26.7,23.6,29.69,SSW,207,1.0,1.0,88,0.00,,,0.00,Wunderground v.1.15,2013-03-04 03:23:00,
2013-03-03 22:25:00,26.7,23.6,29.69,SSE,147,0.0,3.0,88,0.00,,,0.00,Wunderground v.1.15,2013-03-04 03:25:00,
2013-03-03 22:26:00,26.7,23.6,29.69,SSW,194,0.0,3.0,88,0.00,,,0.00,Wunderground v.1.15,2013-03-04 03:26:00,
2013-03-03 22:28:00,26.7,23.6,29.69,South,191,0.0,3.0,88,0.00,,,0.00,Wunderground v.1.15,2013-03-04 03:28:00,
2013-03-03 22:30:00,26.7,23.6,29.69,WSW,246,0.0,1.0,88,0.00,,,0.00,Wunderground v.1.15,2013-03-04 03:30:00,
2013-03-03 22:31:00,26.7,23.6,29.69,SSW,204,0.0,1.0,88,0.00,,,0.00,Wunderground v.1.15,2013-03-04 03:31:00,
2013-03-03 22:33:00,26.7,23.6,29.69,ESE,121,0.0,1.0,88,0.00,,,0.00,Wunderground v.1.15,2013-03-04 03:33:00,
2013-03-03 22:35:00,26.7,23.6,29.69,South,186,1.0,1.0,88,0.00,,,0.00,Wunderground v.1.15,2013-03-04 03:35:00,
2013-03-03 22:36:00,26.7,23.6,29.69,South,181,1.0,1.0,88,0.00,,,0.00,Wunderground v.1.15,2013-03-04 03:36:00,
2013-03-03 22:38:00,26.6,23.5,29.69,SSW,211,1.0,1.0,88,0.00,,,0.00,Wunderground v.1.15,2013-03-04 03:38:00,
2013-03-03 22:40:00,26.6,23.5,29.69,ESE,105,1.0,1.0,88,0.00,,,0.00,Wunderground v.1.15,2013-03-04 03:40:00,
2013-03-03 22:42:00,26.6,23.5,29.69,East,80,0.0,2.0,88,0.00,,,0.00,Wunderground v.1.15,2013-03-04 03:42:00,
2013-03-03 22:44:00,26.6,23.5,29.69,East,82,0.0,2.0,88,0.00,,,0.00,Wunderground v.1.15,2013-03-04 03:44:00,
2013-03-03 22:45:00,26.6,23.5,29.70,WSW,243,0.0,3.0,88,0.00,,,0.00,Wunderground v.1.15,2013-03-04 03:45:00,
2013-03-03 22:46:00,26.6,23.5,29.69,WSW,243,0.0,3.0,88,0.00,,,0.00,Wunderground v.1.15,2013-03-04 03:46:00,
2013-03-03 22:47:00,26.6,23.5,29.69,WSW,238,1.0,3.0,88,0.00,,,0.00,Wunderground v.1.15,2013-03-04 03:47:00,
2013-03-03 22:49:00,26.6,23.5,29.69,WSW,246,0.0,3.0,88,0.00,,,0.00,Wunderground v.1.15,2013-03-04 03:49:00,
2013-03-03 22:51:00,26.6,23.5,29.69,SW,228,0.0,1.0,88,0.00,,,0.00,Wunderground v.1.15,2013-03-04 03:51:00,
2013-03-03 22:52:00,26.6,23.5,29.69,SW,228,0.0,1.0,88,0.00,,,0.00,Wunderground v.1.15,2013-03-04 03:52:00,
2013-03-03 22:54:00,26.6,23.8,29.69,West,266,0.0,3.0,89,0.00,,,0.00,Wunderground v.1.15,2013-03-04 03:54:00,
2013-03-03 22:56:00,26.6,23.8,29.69,West,266,0.0,3.0,89,0.00,,,0.00,Wunderground v.1.15,2013-03-04 03:56:00,
2013-03-03 22:57:00,26.6,23.8,29.69,West,266,0.0,3.0,89,0.00,,,0.00,Wunderground v.1.15,2013-03-04 03:57:00,
2013-03-03 22:59:00,26.6,23.5,29.69,WSW,242,1.0,3.0,88,0.00,,,0.00,Wunderground v.1.15,2013-03-04 03:59:00,
2013-03-03 23:02:00,26.6,23.5,29.69,SSW,198,0.0,1.0,88,0.00,,,0.00,Wunderground v.1.15,2013-03-04 04:02:00,
2013-03-03 23:04:00,26.6,23.5,29.69,SE,132,0.0,2.0,88,0.00,,,0.00,Wunderground v.1.15,2013-03-04 04:04:00,
2013-03-03 23:07:00,26.6,23.5,29.69,WSW,246,1.0,3.0,88,0.00,,,0.00,Wunderground v.1.15,2013-03-04 04:07:00,
2013-03-03 23:09:00,26.6,23.5,29.69,WSW,246,0.0,3.0,88,0.00,,,0.00,Wunderground v.1.15,2013-03-04 04:09:00,
2013-03-03 23:12:00,26.6,23.5,29.69,SSW,197,0.0,3.0,88,0.00,,,0.00,Wunderground v.1.15,2013-03-04 04:12:00,
2013-03-03 23:14:00,26.6,23.5,29.69,SE,125,1.0,3.0,88,0.00,,,0.00,Wunderground v.1.15,2013-03-04 04:14:00,
2013-03-03 23:17:00,26.5,23.4,29.69,West,267,0.0,3.0,88,0.00,,,0.00,Wunderground v.1.15,2013-03-04 04:17:00,
2013-03-03 23:19:00,26.5,23.4,29.69,SSE,148,0.0,3.0,88,0.00,,,0.00,Wunderground v.1.15,2013-03-04 04:19:00,
2013-03-03 23:22:00,26.5,23.4,29.69,NW,314,0.0,3.0,88,0.00,,,0.00,Wunderground v.1.15,2013-03-04 04:22:00,
2013-03-03 23:24:00,26.4,23.3,29.69,NW,314,0.0,3.0,88,0.00,,,0.00,Wunderground v.1.15,2013-03-04 04:24:00,
2013-03-03 23:27:00,26.3,23.2,29.69,ESE,114,4.0,6.0,88,0.00,,,0.00,Wunderground v.1.15,2013-03-04 04:27:00,
2013-03-03 23:28:00,26.3,23.2,29.69,ESE,123,2.0,6.0,88,0.00,,,0.00,Wunderground v.1.15,2013-03-04 04:28:00,
2013-03-03 23:29:00,26.3,23.2,29.69,SSE,148,0.0,6.0,88,0.00,,,0.00,Wunderground v.1.15,2013-03-04 04:29:00,
2013-03-03 23:32:00,26.3,23.2,29.69,SW,228,1.0,4.0,88,0.00,,,0.00,Wunderground v.1.15,2013-03-04 04:32:00,
2013-03-03 23:33:00,26.3,23.2,29.69,East,98,2.0,4.0,88,0.00,,,0.00,Wunderground v.1.15,2013-03-04 04:33:00,
2013-03-03 23:34:00,26.2,23.1,29.69,ENE,75,0.0,4.0,88,0.00,,,0.00,Wunderground v.1.15,2013-03-04 04:34:00,
2013-03-03 23:38:00,26.2,23.4,29.69,SW,215,1.0,4.0,89,0.00,,,0.00,Wunderground v.1.15,2013-03-04 04:38:00,
2013-03-03 23:39:00,26.2,23.4,29.69,South,191,0.0,4.0,89,0.00,,,0.00,Wunderground v.1.15,2013-03-04 04:39:00,
2013-03-03 23:43:00,26.3,23.5,29.69,SW,226,0.0,2.0,89,0.00,,,0.00,Wunderground v.1.15,2013-03-04 04:43:00,
2013-03-03 23:44:00,26.2,23.4,29.69,SW,235,1.0,3.0,89,0.00,,,0.00,Wunderground v.1.15,2013-03-04 04:44:00,
2013-03-03 23:48:00,26.3,23.5,29.69,SSE,150,0.0,4.0,89,0.00,,,0.00,Wunderground v.1.15,2013-03-04 04:48:00,
2013-03-03 23:49:00,26.2,23.4,29.69,SSE,150,0.0,4.0,89,0.00,,,0.00,Wunderground v.1.15,2013-03-04 04:49:00,
2013-03-03 23:50:00,26.2,23.1,29.69,West,259,0.0,4.0,88,0.00,,,0.00,Wunderground v.1.15,2013-03-04 04:50:00,
2013-03-03 23:53:00,26.2,23.4,29.69,East,94,1.0,2.0,89,0.00,,,0.00,Wunderground v.1.15,2013-03-04 04:53:00,
2013-03-03 23:54:00,26.2,23.4,29.69,East,100,1.0,2.0,89,0.00,,,0.00,Wunderground v.1.15,2013-03-04 04:54:00,
2013-03-03 23:55:00,26.2,23.4,29.69,SSW,200,0.0,2.0,89,0.00,,,0.00,Wunderground v.1.15,2013-03-04 04:55:00,
2013-03-03 23:58:00,26.2,23.4,29.69,SW,226,1.0,2.0,89,0.00,,,0.00,Wunderground v.1.15,2013-03-04 04:58:00,
2013-03-03 23:59:00,26.2,23.4,29.70,SW,222,1.0,2.0,89,0.00,,,0.00,Wunderground v.1.15,2013-03-04 04:59:00,